ACA350 EGLL-CYYZ
Flight info
| Callsign | ACA350 |
|---|---|
| Flight time | 7h 21m |
| Altitude | 36000 |
| Route | ULTIB T420 TNT UL28 PENIL M144 BAGSO DCT DOGAL/M082F360 DCT 55N020W 55N030W 55N040W 54N050W DCT NEEKO/N0486F380 N622E TAFFY DCT VILRO DCT SAVEX Q806 TUKIR IMEBA9 |
| Aircraft | B77W/H-SDE1E2E3FGHIJ2J3J4J5M1RWXY/LB1D1 |
Departure
| Time | 2026-05-04 19:13 |
|---|---|
| Airport | London Heathrow Airport (EGLL) |
Arrival
| Time | 2026-05-05 02:34 |
|---|---|
| Airport | Toronto Pearson International Airport (CYYZ) |
| Time | Latitude | Longitude | Altitude | Speed | Heading |
|---|---|---|---|---|---|
| 2026-05-04 18:41 | 51.46917 | -0.47735 | 94 ft | 0 kts | 90° |
| 2026-05-04 18:52 | 51.46917 | -0.47742 | 91 ft | 3 kts | 90° |
| 2026-05-04 18:52 | 51.46917 | -0.47778 | 91 ft | 3 kts | 90° |
| 2026-05-04 18:53 | 51.46917 | -0.47813 | 91 ft | 3 kts | 89° |
| 2026-05-04 18:53 | 51.46917 | -0.47845 | 91 ft | 3 kts | 107° |
| 2026-05-04 18:53 | 51.46926 | -0.47867 | 93 ft | 3 kts | 167° |
| 2026-05-04 18:53 | 51.46948 | -0.47870 | 91 ft | 3 kts | 181° |
| 2026-05-04 18:54 | 51.46955 | -0.47869 | 92 ft | 0 kts | 180° |
| 2026-05-04 18:59 | 51.46944 | -0.47869 | 91 ft | 9 kts | 179° |
| 2026-05-04 18:59 | 51.46860 | -0.47866 | 92 ft | 12 kts | 179° |
| 2026-05-04 18:59 | 51.46775 | -0.47871 | 93 ft | 12 kts | 200° |
| 2026-05-04 19:00 | 51.46744 | -0.47984 | 93 ft | 11 kts | 264° |
| 2026-05-04 19:00 | 51.46742 | -0.48059 | 91 ft | 0 kts | 269° |
| 2026-05-04 19:03 | 51.46742 | -0.48082 | 91 ft | 5 kts | 269° |
| 2026-05-04 19:03 | 51.46741 | -0.48133 | 91 ft | 5 kts | 268° |
| 2026-05-04 19:03 | 51.46732 | -0.48177 | 93 ft | 4 kts | 239° |
| 2026-05-04 19:03 | 51.46715 | -0.48197 | 93 ft | 3 kts | 206° |
| 2026-05-04 19:04 | 51.46698 | -0.48204 | 95 ft | 2 kts | 192° |
| 2026-05-04 19:04 | 51.46683 | -0.48208 | 95 ft | 2 kts | 188° |
| 2026-05-04 19:04 | 51.46661 | -0.48210 | 92 ft | 6 kts | 183° |
| 2026-05-04 19:04 | 51.46624 | -0.48211 | 93 ft | 1 kts | 180° |
| 2026-05-04 19:05 | 51.46623 | -0.48211 | 93 ft | 0 kts | 180° |
| 2026-05-04 19:11 | 51.46611 | -0.48211 | 93 ft | 6 kts | 180° |
| 2026-05-04 19:11 | 51.46577 | -0.48211 | 92 ft | 4 kts | 180° |
| 2026-05-04 19:12 | 51.46523 | -0.48207 | 97 ft | 9 kts | 171° |
| 2026-05-04 19:12 | 51.46482 | -0.48112 | 96 ft | 0 kts | 95° |
| 2026-05-04 19:12 | 51.46482 | -0.48108 | 95 ft | 0 kts | 90° |
| 2026-05-04 19:13 | 51.46481 | -0.47852 | 91 ft | 69 kts | 90° |
| 2026-05-04 19:13 | 51.46490 | -0.46483 | 95 ft | 176 kts | 89° |
| 2026-05-04 19:13 | 51.46475 | -0.44265 | 1006 ft | 207 kts | 90° |
| 2026-05-04 19:14 | 51.46525 | -0.41980 | 2376 ft | 204 kts | 78° |
| 2026-05-04 19:14 | 51.47096 | -0.39862 | 2739 ft | 222 kts | 56° |
| 2026-05-04 19:14 | 51.48078 | -0.37822 | 3173 ft | 235 kts | 51° |
| 2026-05-04 19:14 | 51.49142 | -0.35757 | 3751 ft | 246 kts | 50° |
| 2026-05-04 19:15 | 51.50261 | -0.33614 | 4398 ft | 255 kts | 50° |
| 2026-05-04 19:15 | 51.51425 | -0.31388 | 5045 ft | 264 kts | 50° |
| 2026-05-04 19:15 | 51.52539 | -0.29026 | 5701 ft | 268 kts | 62° |
| 2026-05-04 19:15 | 51.53194 | -0.26186 | 6016 ft | 276 kts | 73° |
| 2026-05-04 19:16 | 51.53773 | -0.23226 | 6010 ft | 278 kts | 71° |
| 2026-05-04 19:16 | 51.54398 | -0.20322 | 5976 ft | 271 kts | 64° |
| 2026-05-04 19:16 | 51.55597 | -0.18078 | 6014 ft | 269 kts | 29° |
| 2026-05-04 19:16 | 51.57397 | -0.17354 | 6027 ft | 272 kts | 354° |
| 2026-05-04 19:17 | 51.59143 | -0.18427 | 6035 ft | 273 kts | 320° |
| 2026-05-04 19:17 | 51.60496 | -0.20539 | 6032 ft | 271 kts | 315° |
| 2026-05-04 19:17 | 51.61948 | -0.22513 | 6027 ft | 272 kts | 322° |
| 2026-05-04 19:17 | 51.63430 | -0.24340 | 6031 ft | 266 kts | 319° |
| 2026-05-04 19:18 | 51.64876 | -0.26212 | 6026 ft | 268 kts | 322° |
| 2026-05-04 19:18 | 51.66404 | -0.27942 | 6101 ft | 269 kts | 325° |
| 2026-05-04 19:18 | 51.67979 | -0.29600 | 6809 ft | 272 kts | 326° |
| 2026-05-04 19:18 | 51.69561 | -0.31201 | 7602 ft | 273 kts | 327° |
| 2026-05-04 19:19 | 51.71201 | -0.32824 | 8300 ft | 278 kts | 327° |
| 2026-05-04 19:19 | 51.72867 | -0.34451 | 9053 ft | 281 kts | 327° |
| 2026-05-04 19:19 | 51.74554 | -0.36086 | 9795 ft | 284 kts | 328° |
| 2026-05-04 19:19 | 51.76268 | -0.37734 | 10428 ft | 291 kts | 327° |
| 2026-05-04 19:20 | 51.78074 | -0.39471 | 10625 ft | 315 kts | 327° |
| 2026-05-04 19:20 | 51.80032 | -0.41357 | 10812 ft | 339 kts | 327° |
| 2026-05-04 19:20 | 51.82129 | -0.43384 | 11125 ft | 359 kts | 327° |
| 2026-05-04 19:20 | 51.84305 | -0.45508 | 11804 ft | 369 kts | 327° |
| 2026-05-04 19:21 | 51.86512 | -0.47666 | 12721 ft | 373 kts | 327° |
| 2026-05-04 19:21 | 51.88746 | -0.49853 | 13676 ft | 377 kts | 327° |
| 2026-05-04 19:21 | 51.90976 | -0.52037 | 14502 ft | 383 kts | 328° |
| 2026-05-04 19:21 | 51.93292 | -0.54308 | 15215 ft | 392 kts | 328° |
| 2026-05-04 19:22 | 51.95645 | -0.56613 | 15995 ft | 398 kts | 327° |
| 2026-05-04 19:22 | 51.98036 | -0.58944 | 16790 ft | 404 kts | 327° |
| 2026-05-04 19:22 | 52.00458 | -0.61306 | 17589 ft | 409 kts | 327° |
| 2026-05-04 19:22 | 52.02913 | -0.63704 | 18359 ft | 416 kts | 327° |
| 2026-05-04 19:23 | 52.05413 | -0.66149 | 19101 ft | 419 kts | 327° |
| 2026-05-04 19:23 | 52.07919 | -0.68604 | 19906 ft | 421 kts | 327° |
| 2026-05-04 19:23 | 52.10442 | -0.71080 | 20631 ft | 425 kts | 327° |
| 2026-05-04 19:23 | 52.12987 | -0.73582 | 21317 ft | 430 kts | 326° |
| 2026-05-04 19:24 | 52.15565 | -0.76128 | 21989 ft | 435 kts | 326° |
| 2026-05-04 19:24 | 52.18161 | -0.78702 | 22674 ft | 439 kts | 326° |
| 2026-05-04 19:24 | 52.20786 | -0.81309 | 23360 ft | 443 kts | 326° |
| 2026-05-04 19:24 | 52.23401 | -0.83907 | 23941 ft | 447 kts | 326° |
| 2026-05-04 19:25 | 52.26073 | -0.86563 | 24511 ft | 451 kts | 326° |
| 2026-05-04 19:25 | 52.28766 | -0.89234 | 25084 ft | 454 kts | 326° |
| 2026-05-04 19:25 | 52.31474 | -0.91917 | 25733 ft | 454 kts | 326° |
| 2026-05-04 19:25 | 52.34184 | -0.94608 | 26282 ft | 458 kts | 326° |
| 2026-05-04 19:26 | 52.36916 | -0.97325 | 26757 ft | 462 kts | 326° |
| 2026-05-04 19:26 | 52.39683 | -1.00084 | 27222 ft | 467 kts | 326° |
| 2026-05-04 19:26 | 52.42472 | -1.02867 | 27655 ft | 472 kts | 327° |
| 2026-05-04 19:26 | 52.45284 | -1.05677 | 28144 ft | 475 kts | 327° |
| 2026-05-04 19:27 | 52.48118 | -1.08513 | 28626 ft | 477 kts | 327° |
| 2026-05-04 19:27 | 52.50959 | -1.11373 | 29058 ft | 480 kts | 327° |
| 2026-05-04 19:27 | 52.53774 | -1.14231 | 29497 ft | 483 kts | 327° |
| 2026-05-04 19:27 | 52.56639 | -1.17145 | 29913 ft | 486 kts | 327° |
| 2026-05-04 19:28 | 52.59517 | -1.20063 | 30380 ft | 485 kts | 327° |
| 2026-05-04 19:28 | 52.62385 | -1.22966 | 30888 ft | 483 kts | 328° |
| 2026-05-04 19:28 | 52.65244 | -1.25862 | 31410 ft | 481 kts | 328° |
| 2026-05-04 19:28 | 52.68086 | -1.28747 | 31884 ft | 480 kts | 328° |
| 2026-05-04 19:29 | 52.70935 | -1.31646 | 32312 ft | 480 kts | 327° |
| 2026-05-04 19:29 | 52.73777 | -1.34538 | 32728 ft | 480 kts | 327° |
| 2026-05-04 19:29 | 52.76616 | -1.37429 | 33228 ft | 477 kts | 329° |
| 2026-05-04 19:29 | 52.79441 | -1.40310 | 33748 ft | 475 kts | 329° |
| 2026-05-04 19:30 | 52.82249 | -1.43177 | 34151 ft | 474 kts | 329° |
| 2026-05-04 19:30 | 52.85017 | -1.46009 | 34441 ft | 474 kts | 329° |
| 2026-05-04 19:30 | 52.87828 | -1.48888 | 34730 ft | 475 kts | 329° |
| 2026-05-04 19:30 | 52.90648 | -1.51782 | 35034 ft | 475 kts | 329° |
| 2026-05-04 19:31 | 52.93450 | -1.54663 | 35328 ft | 475 kts | 329° |
| 2026-05-04 19:31 | 52.96264 | -1.57560 | 35612 ft | 475 kts | 329° |
| 2026-05-04 19:31 | 52.99065 | -1.60449 | 35898 ft | 475 kts | 329° |
| 2026-05-04 19:32 | 53.04719 | -1.66292 | 36028 ft | 479 kts | 329° |
| 2026-05-04 19:32 | 53.10345 | -1.72133 | 36034 ft | 473 kts | 329° |
| 2026-05-04 19:33 | 53.15913 | -1.77942 | 36048 ft | 471 kts | 329° |
| 2026-05-04 19:33 | 53.21344 | -1.83905 | 36040 ft | 470 kts | 321° |
| 2026-05-04 19:34 | 53.25638 | -1.92121 | 36059 ft | 472 kts | 302° |
| 2026-05-04 19:34 | 53.28591 | -2.01917 | 36055 ft | 473 kts | 296° |
| 2026-05-04 19:35 | 53.31450 | -2.11849 | 36042 ft | 474 kts | 297° |
| 2026-05-04 19:35 | 53.34386 | -2.21758 | 36051 ft | 475 kts | 297° |
| 2026-05-04 19:36 | 53.36921 | -2.32000 | 36045 ft | 477 kts | 289° |
| 2026-05-04 19:36 | 53.38897 | -2.42627 | 36048 ft | 478 kts | 288° |
| 2026-05-04 19:37 | 53.40877 | -2.53294 | 36052 ft | 479 kts | 288° |
| 2026-05-04 19:37 | 53.42870 | -2.63869 | 36045 ft | 479 kts | 289° |
| 2026-05-04 19:38 | 53.44876 | -2.74509 | 36061 ft | 478 kts | 289° |
| 2026-05-04 19:38 | 53.46873 | -2.85173 | 36059 ft | 478 kts | 289° |
| 2026-05-04 19:39 | 53.48847 | -2.95815 | 36068 ft | 477 kts | 288° |
| 2026-05-04 19:39 | 53.50797 | -3.06490 | 36063 ft | 477 kts | 288° |
| 2026-05-04 19:40 | 53.52732 | -3.17146 | 36063 ft | 476 kts | 288° |
| 2026-05-04 19:40 | 53.54648 | -3.27738 | 36063 ft | 476 kts | 288° |
| 2026-05-04 19:41 | 53.56568 | -3.38407 | 36068 ft | 476 kts | 288° |
| 2026-05-04 19:41 | 53.58480 | -3.49077 | 36068 ft | 476 kts | 288° |
| 2026-05-04 19:42 | 53.60406 | -3.59738 | 36088 ft | 476 kts | 288° |
| 2026-05-04 19:42 | 53.61707 | -3.68749 | 36064 ft | 477 kts | 279° |
| 2026-05-04 19:43 | 53.62293 | -3.81717 | 36086 ft | 478 kts | 274° |
| 2026-05-04 19:43 | 53.62649 | -3.91078 | 36084 ft | 478 kts | 275° |
| 2026-05-04 19:44 | 53.63110 | -4.02188 | 36084 ft | 478 kts | 275° |
| 2026-05-04 19:44 | 53.63543 | -4.13377 | 36086 ft | 479 kts | 275° |
| 2026-05-04 19:45 | 53.63961 | -4.24579 | 36088 ft | 479 kts | 274° |
| 2026-05-04 19:45 | 53.64370 | -4.35787 | 36076 ft | 478 kts | 274° |
| 2026-05-04 19:46 | 53.64763 | -4.46978 | 36082 ft | 478 kts | 274° |
| 2026-05-04 19:46 | 53.65148 | -4.58188 | 36070 ft | 478 kts | 274° |
| 2026-05-04 19:47 | 53.65521 | -4.69301 | 36067 ft | 477 kts | 274° |
| 2026-05-04 19:47 | 53.65887 | -4.80447 | 36081 ft | 475 kts | 274° |
| 2026-05-04 19:48 | 53.66249 | -4.91565 | 36086 ft | 474 kts | 274° |
| 2026-05-04 19:48 | 53.66615 | -5.02656 | 36075 ft | 472 kts | 274° |
| 2026-05-04 19:49 | 53.66970 | -5.13705 | 36094 ft | 472 kts | 274° |
| 2026-05-04 19:49 | 53.67299 | -5.24756 | 36087 ft | 471 kts | 274° |
| 2026-05-04 19:50 | 53.67608 | -5.35740 | 36089 ft | 471 kts | 274° |
| 2026-05-04 19:50 | 53.67914 | -5.46788 | 36084 ft | 471 kts | 274° |
| 2026-05-04 19:51 | 53.68506 | -5.57780 | 36092 ft | 469 kts | 278° |
| 2026-05-04 19:51 | 53.69319 | -5.68651 | 36094 ft | 470 kts | 278° |
| 2026-05-04 19:52 | 53.70134 | -5.79607 | 36093 ft | 470 kts | 278° |
| 2026-05-04 19:52 | 53.70922 | -5.90587 | 36089 ft | 471 kts | 278° |
| 2026-05-04 19:53 | 53.71689 | -6.01558 | 36090 ft | 471 kts | 278° |
| 2026-05-04 19:53 | 53.72440 | -6.12480 | 36089 ft | 471 kts | 277° |
| 2026-05-04 19:54 | 53.73187 | -6.23488 | 36090 ft | 471 kts | 277° |
| 2026-05-04 19:54 | 53.73923 | -6.34491 | 36083 ft | 471 kts | 277° |
| 2026-05-04 19:55 | 53.74649 | -6.45473 | 36074 ft | 470 kts | 277° |
| 2026-05-04 19:55 | 53.75364 | -6.56462 | 36084 ft | 470 kts | 277° |
| 2026-05-04 19:56 | 53.76069 | -6.67454 | 36090 ft | 469 kts | 277° |
| 2026-05-04 19:56 | 53.76759 | -6.78357 | 36087 ft | 469 kts | 277° |
| 2026-05-04 19:57 | 53.77443 | -6.89328 | 36081 ft | 469 kts | 277° |
| 2026-05-04 19:57 | 53.78117 | -7.00314 | 36086 ft | 468 kts | 277° |
| 2026-05-04 19:58 | 53.78776 | -7.11211 | 36096 ft | 468 kts | 277° |
| 2026-05-04 19:58 | 53.79428 | -7.22165 | 36091 ft | 466 kts | 276° |
| 2026-05-04 19:59 | 53.80067 | -7.33080 | 36070 ft | 465 kts | 276° |
| 2026-05-04 19:59 | 53.80690 | -7.43879 | 36083 ft | 463 kts | 276° |
| 2026-05-04 20:00 | 53.81305 | -7.54718 | 36090 ft | 461 kts | 276° |
| 2026-05-04 20:00 | 53.81908 | -7.65516 | 36092 ft | 460 kts | 276° |
| 2026-05-04 20:01 | 53.82502 | -7.76311 | 36096 ft | 460 kts | 276° |
| 2026-05-04 20:01 | 53.83084 | -7.87101 | 36084 ft | 461 kts | 276° |
| 2026-05-04 20:02 | 53.83659 | -7.97919 | 36103 ft | 461 kts | 276° |
| 2026-05-04 20:02 | 53.84220 | -8.08660 | 36098 ft | 461 kts | 276° |
| 2026-05-04 20:03 | 53.84775 | -8.19498 | 36099 ft | 462 kts | 276° |
| 2026-05-04 20:03 | 53.85323 | -8.30368 | 36105 ft | 462 kts | 276° |
| 2026-05-04 20:04 | 53.85856 | -8.41157 | 36099 ft | 462 kts | 276° |
| 2026-05-04 20:04 | 53.86384 | -8.52024 | 36099 ft | 462 kts | 275° |
| 2026-05-04 20:05 | 53.86901 | -8.62883 | 36101 ft | 462 kts | 275° |
| 2026-05-04 20:05 | 53.87405 | -8.73669 | 36104 ft | 462 kts | 275° |
| 2026-05-04 20:06 | 53.87904 | -8.84573 | 36110 ft | 461 kts | 275° |
| 2026-05-04 20:06 | 53.88388 | -8.95339 | 36103 ft | 461 kts | 275° |
| 2026-05-04 20:07 | 53.88867 | -9.06232 | 36115 ft | 460 kts | 275° |
| 2026-05-04 20:07 | 53.89329 | -9.16969 | 36118 ft | 459 kts | 275° |
| 2026-05-04 20:08 | 53.89784 | -9.27761 | 36126 ft | 458 kts | 275° |
| 2026-05-04 20:08 | 53.90228 | -9.38525 | 36124 ft | 456 kts | 275° |
| 2026-05-04 20:09 | 53.90661 | -9.49258 | 36132 ft | 455 kts | 274° |
| 2026-05-04 20:09 | 53.91081 | -9.59897 | 36136 ft | 454 kts | 274° |
| 2026-05-04 20:10 | 53.91493 | -9.70582 | 36138 ft | 453 kts | 274° |
| 2026-05-04 20:10 | 53.91895 | -9.81255 | 36142 ft | 453 kts | 274° |
| 2026-05-04 20:11 | 53.92289 | -9.91937 | 36153 ft | 453 kts | 274° |
| 2026-05-04 20:11 | 53.92670 | -10.02562 | 36145 ft | 453 kts | 274° |
| 2026-05-04 20:12 | 53.93044 | -10.13253 | 36151 ft | 454 kts | 274° |
| 2026-05-04 20:12 | 53.93409 | -10.23948 | 36149 ft | 454 kts | 274° |
| 2026-05-04 20:13 | 53.93765 | -10.34657 | 36154 ft | 454 kts | 274° |
| 2026-05-04 20:13 | 53.94109 | -10.45308 | 36153 ft | 454 kts | 274° |
| 2026-05-04 20:14 | 53.94446 | -10.56047 | 36155 ft | 455 kts | 273° |
| 2026-05-04 20:14 | 53.94772 | -10.66702 | 36153 ft | 454 kts | 273° |
| 2026-05-04 20:15 | 53.95089 | -10.77426 | 36152 ft | 454 kts | 273° |
| 2026-05-04 20:15 | 53.95397 | -10.88126 | 36151 ft | 454 kts | 273° |
| 2026-05-04 20:16 | 53.95696 | -10.98852 | 36160 ft | 454 kts | 273° |
| 2026-05-04 20:16 | 53.95984 | -11.09547 | 36158 ft | 454 kts | 273° |
| 2026-05-04 20:17 | 53.96263 | -11.20253 | 36157 ft | 453 kts | 273° |
| 2026-05-04 20:17 | 53.96532 | -11.30944 | 36157 ft | 453 kts | 273° |
| 2026-05-04 20:18 | 53.96793 | -11.41652 | 36156 ft | 453 kts | 272° |
| 2026-05-04 20:18 | 53.97041 | -11.52284 | 36157 ft | 452 kts | 272° |
| 2026-05-04 20:19 | 53.97281 | -11.62961 | 36158 ft | 451 kts | 272° |
| 2026-05-04 20:19 | 53.97512 | -11.73605 | 36163 ft | 451 kts | 272° |
| 2026-05-04 20:20 | 53.97732 | -11.84256 | 36163 ft | 450 kts | 272° |
| 2026-05-04 20:20 | 53.97942 | -11.94828 | 36162 ft | 450 kts | 272° |
| 2026-05-04 20:21 | 53.98144 | -12.05457 | 36166 ft | 450 kts | 272° |
| 2026-05-04 20:21 | 53.98429 | -12.21417 | 36167 ft | 450 kts | 272° |
| 2026-05-04 20:22 | 53.98607 | -12.32064 | 36171 ft | 451 kts | 272° |
| 2026-05-04 20:22 | 53.98777 | -12.42735 | 36170 ft | 451 kts | 271° |
| 2026-05-04 20:23 | 53.98935 | -12.53320 | 36178 ft | 451 kts | 271° |
| 2026-05-04 20:23 | 53.99086 | -12.63993 | 36173 ft | 452 kts | 271° |
| 2026-05-04 20:24 | 53.99227 | -12.74680 | 36170 ft | 452 kts | 271° |
| 2026-05-04 20:24 | 53.99359 | -12.85363 | 36176 ft | 452 kts | 271° |
| 2026-05-04 20:25 | 53.99481 | -12.96039 | 36186 ft | 452 kts | 271° |
| 2026-05-04 20:25 | 53.99594 | -13.06741 | 36184 ft | 452 kts | 271° |
| 2026-05-04 20:26 | 53.99697 | -13.17431 | 36182 ft | 452 kts | 271° |
| 2026-05-04 20:26 | 53.99791 | -13.28055 | 36177 ft | 452 kts | 271° |
| 2026-05-04 20:27 | 53.99875 | -13.38759 | 36191 ft | 452 kts | 271° |
| 2026-05-04 20:27 | 53.99950 | -13.49463 | 36196 ft | 452 kts | 271° |
| 2026-05-04 20:28 | 54.00016 | -13.60158 | 36193 ft | 452 kts | 271° |
| 2026-05-04 20:28 | 54.00072 | -13.70862 | 36194 ft | 452 kts | 271° |
| 2026-05-04 20:29 | 54.00118 | -13.81472 | 36192 ft | 452 kts | 271° |
| 2026-05-04 20:29 | 54.00154 | -13.92157 | 36197 ft | 452 kts | 271° |
| 2026-05-04 20:30 | 54.00182 | -14.02855 | 36201 ft | 451 kts | 271° |
| 2026-05-04 20:30 | 54.00200 | -14.13537 | 36200 ft | 451 kts | 271° |
| 2026-05-04 20:31 | 54.00209 | -14.24137 | 36204 ft | 451 kts | 271° |
| 2026-05-04 20:31 | 54.00208 | -14.34795 | 36197 ft | 451 kts | 271° |
| 2026-05-04 20:32 | 54.00198 | -14.45464 | 36206 ft | 451 kts | 271° |
| 2026-05-04 20:32 | 54.00178 | -14.56127 | 36209 ft | 451 kts | 271° |
| 2026-05-04 20:33 | 54.00150 | -14.66805 | 36208 ft | 451 kts | 271° |
| 2026-05-04 20:33 | 54.00112 | -14.77396 | 36210 ft | 451 kts | 271° |
| 2026-05-04 20:34 | 54.00066 | -14.88086 | 36214 ft | 451 kts | 271° |
| 2026-05-04 20:34 | 54.00259 | -14.96930 | 36211 ft | 449 kts | 279° |
| 2026-05-04 20:35 | 54.01589 | -15.07283 | 36216 ft | 448 kts | 289° |
| 2026-05-04 20:35 | 54.03776 | -15.17212 | 36222 ft | 448 kts | 291° |
| 2026-05-04 20:36 | 54.06040 | -15.27116 | 36225 ft | 448 kts | 291° |
| 2026-05-04 20:36 | 54.08267 | -15.36991 | 36221 ft | 449 kts | 291° |
| 2026-05-04 20:37 | 54.10478 | -15.46936 | 36220 ft | 449 kts | 291° |
| 2026-05-04 20:37 | 54.12673 | -15.56895 | 36216 ft | 449 kts | 291° |
| 2026-05-04 20:38 | 54.14861 | -15.66874 | 36231 ft | 449 kts | 291° |
| 2026-05-04 20:38 | 54.17043 | -15.76871 | 36228 ft | 449 kts | 291° |
| 2026-05-04 20:39 | 54.19215 | -15.86866 | 36229 ft | 449 kts | 291° |
| 2026-05-04 20:39 | 54.21377 | -15.96865 | 36240 ft | 449 kts | 291° |
| 2026-05-04 20:40 | 54.23516 | -16.06810 | 36235 ft | 449 kts | 291° |
| 2026-05-04 20:40 | 54.25662 | -16.16832 | 36226 ft | 448 kts | 290° |
| 2026-05-04 20:41 | 54.27800 | -16.26867 | 36234 ft | 448 kts | 290° |
| 2026-05-04 20:41 | 54.29928 | -16.36901 | 36238 ft | 448 kts | 290° |
| 2026-05-04 20:42 | 54.32049 | -16.46956 | 36231 ft | 448 kts | 290° |
| 2026-05-04 20:42 | 54.34148 | -16.56955 | 36236 ft | 449 kts | 290° |
| 2026-05-04 20:43 | 54.36254 | -16.67038 | 36238 ft | 449 kts | 290° |
| 2026-05-04 20:43 | 54.38353 | -16.77136 | 36243 ft | 449 kts | 290° |
| 2026-05-04 20:44 | 54.40432 | -16.87191 | 36240 ft | 449 kts | 290° |
| 2026-05-04 20:44 | 54.42515 | -16.97317 | 36242 ft | 449 kts | 290° |
| 2026-05-04 20:45 | 54.44590 | -17.07452 | 36242 ft | 449 kts | 290° |
| 2026-05-04 20:45 | 54.46658 | -17.17606 | 36245 ft | 449 kts | 290° |
| 2026-05-04 20:46 | 54.48698 | -17.27675 | 36247 ft | 449 kts | 289° |
| 2026-05-04 20:46 | 54.50744 | -17.37824 | 36248 ft | 449 kts | 289° |
| 2026-05-04 20:47 | 54.52781 | -17.47983 | 36252 ft | 449 kts | 289° |
| 2026-05-04 20:47 | 54.54811 | -17.58158 | 36250 ft | 449 kts | 289° |
| 2026-05-04 20:48 | 54.56836 | -17.68362 | 36256 ft | 450 kts | 289° |
| 2026-05-04 20:48 | 54.58855 | -17.78589 | 36256 ft | 450 kts | 289° |
| 2026-05-04 20:49 | 54.60852 | -17.88758 | 36256 ft | 450 kts | 289° |
| 2026-05-04 20:49 | 54.62855 | -17.99007 | 36261 ft | 451 kts | 289° |
| 2026-05-04 20:50 | 54.64849 | -18.09272 | 36260 ft | 450 kts | 289° |
| 2026-05-04 20:50 | 54.66836 | -18.19553 | 36262 ft | 450 kts | 289° |
| 2026-05-04 20:51 | 54.68799 | -18.29764 | 36263 ft | 450 kts | 288° |
| 2026-05-04 20:51 | 54.70765 | -18.40043 | 36259 ft | 450 kts | 288° |
| 2026-05-04 20:52 | 54.72717 | -18.50309 | 36266 ft | 449 kts | 288° |
| 2026-05-04 20:52 | 54.74662 | -18.60587 | 36267 ft | 449 kts | 288° |
| 2026-05-04 20:53 | 54.76598 | -18.70881 | 36265 ft | 449 kts | 288° |
| 2026-05-04 20:53 | 54.78508 | -18.81089 | 36269 ft | 448 kts | 288° |
| 2026-05-04 20:54 | 54.80423 | -18.91379 | 36264 ft | 448 kts | 288° |
| 2026-05-04 20:54 | 54.82324 | -19.01651 | 36278 ft | 447 kts | 288° |
| 2026-05-04 20:55 | 54.84216 | -19.11928 | 36273 ft | 447 kts | 288° |
| 2026-05-04 20:55 | 54.86097 | -19.22204 | 36274 ft | 447 kts | 288° |
| 2026-05-04 20:56 | 54.87969 | -19.32488 | 36276 ft | 446 kts | 288° |
| 2026-05-04 20:56 | 54.89819 | -19.42710 | 36271 ft | 446 kts | 288° |
| 2026-05-04 20:57 | 54.91669 | -19.52988 | 36274 ft | 445 kts | 288° |
| 2026-05-04 20:57 | 54.93509 | -19.63268 | 36286 ft | 445 kts | 288° |
| 2026-05-04 20:58 | 54.95343 | -19.73567 | 36277 ft | 445 kts | 288° |
| 2026-05-04 20:58 | 54.97166 | -19.83862 | 36284 ft | 445 kts | 288° |
| 2026-05-04 20:59 | 54.98969 | -19.94104 | 36283 ft | 445 kts | 287° |
| 2026-05-04 20:59 | 55.00243 | -20.04634 | 36285 ft | 446 kts | 276° |
| 2026-05-04 21:00 | 55.00668 | -20.15414 | 36292 ft | 446 kts | 275° |
| 2026-05-04 21:00 | 55.01058 | -20.26206 | 36294 ft | 445 kts | 275° |
| 2026-05-04 21:01 | 55.01457 | -20.36984 | 36283 ft | 446 kts | 275° |
| 2026-05-04 21:01 | 55.01857 | -20.47703 | 36291 ft | 446 kts | 275° |
| 2026-05-04 21:02 | 55.02254 | -20.58486 | 36294 ft | 446 kts | 275° |
| 2026-05-04 21:02 | 55.02641 | -20.69281 | 36280 ft | 446 kts | 275° |
| 2026-05-04 21:03 | 55.03018 | -20.80061 | 36297 ft | 446 kts | 274° |
| 2026-05-04 21:03 | 55.03384 | -20.90802 | 36307 ft | 446 kts | 274° |
| 2026-05-04 21:04 | 55.03743 | -21.01628 | 36299 ft | 446 kts | 274° |
| 2026-05-04 21:04 | 55.04092 | -21.12440 | 36304 ft | 446 kts | 274° |
| 2026-05-04 21:05 | 55.04431 | -21.23273 | 36296 ft | 446 kts | 274° |
| 2026-05-04 21:05 | 55.04761 | -21.34094 | 36303 ft | 446 kts | 274° |
| 2026-05-04 21:06 | 55.05080 | -21.44849 | 36299 ft | 447 kts | 274° |
| 2026-05-04 21:06 | 55.05391 | -21.55688 | 36302 ft | 447 kts | 274° |
| 2026-05-04 21:07 | 55.05692 | -21.66516 | 36310 ft | 447 kts | 274° |
| 2026-05-04 21:07 | 55.05984 | -21.77356 | 36307 ft | 447 kts | 273° |
| 2026-05-04 21:08 | 55.06266 | -21.88192 | 36306 ft | 447 kts | 273° |
| 2026-05-04 21:08 | 55.06536 | -21.98962 | 36314 ft | 447 kts | 273° |
| 2026-05-04 21:09 | 55.06799 | -22.09810 | 36317 ft | 447 kts | 273° |
| 2026-05-04 21:09 | 55.07053 | -22.20660 | 36322 ft | 448 kts | 273° |
| 2026-05-04 21:10 | 55.07297 | -22.31540 | 36312 ft | 448 kts | 273° |
| 2026-05-04 21:10 | 55.07531 | -22.42401 | 36315 ft | 448 kts | 272° |
| 2026-05-04 21:11 | 55.07756 | -22.53259 | 36312 ft | 448 kts | 272° |
| 2026-05-04 21:11 | 55.07969 | -22.64050 | 36312 ft | 448 kts | 272° |
| 2026-05-04 21:12 | 55.08175 | -22.74936 | 36317 ft | 448 kts | 272° |
| 2026-05-04 21:12 | 55.08371 | -22.85804 | 36317 ft | 448 kts | 272° |
| 2026-05-04 21:13 | 55.08557 | -22.96664 | 36323 ft | 448 kts | 272° |
| 2026-05-04 21:13 | 55.08733 | -23.07523 | 36315 ft | 448 kts | 272° |
| 2026-05-04 21:14 | 55.08900 | -23.18402 | 36315 ft | 448 kts | 272° |
| 2026-05-04 21:14 | 55.09056 | -23.29199 | 36325 ft | 448 kts | 272° |
| 2026-05-04 21:15 | 55.09203 | -23.40092 | 36325 ft | 448 kts | 272° |
| 2026-05-04 21:15 | 55.09341 | -23.50969 | 36330 ft | 448 kts | 272° |
| 2026-05-04 21:16 | 55.09468 | -23.61792 | 36322 ft | 448 kts | 271° |
| 2026-05-04 21:16 | 55.09587 | -23.72675 | 36332 ft | 448 kts | 271° |
| 2026-05-04 21:17 | 55.09696 | -23.83581 | 36332 ft | 448 kts | 271° |
| 2026-05-04 21:17 | 55.09795 | -23.94468 | 36334 ft | 448 kts | 271° |
| 2026-05-04 21:18 | 55.09883 | -24.05298 | 36334 ft | 448 kts | 271° |
| 2026-05-04 21:18 | 55.09964 | -24.16250 | 36334 ft | 448 kts | 271° |
| 2026-05-04 21:19 | 55.10033 | -24.27101 | 36333 ft | 449 kts | 271° |
| 2026-05-04 21:19 | 55.10094 | -24.37994 | 36345 ft | 449 kts | 271° |
| 2026-05-04 21:20 | 55.10144 | -24.48895 | 36335 ft | 449 kts | 271° |
| 2026-05-04 21:20 | 55.10185 | -24.59801 | 36332 ft | 449 kts | 271° |
| 2026-05-04 21:21 | 55.10216 | -24.70705 | 36343 ft | 449 kts | 271° |
| 2026-05-04 21:21 | 55.10237 | -24.81561 | 36353 ft | 449 kts | 270° |
| 2026-05-04 21:22 | 55.10249 | -24.92479 | 36342 ft | 450 kts | 270° |
| 2026-05-04 21:22 | 55.10251 | -25.03426 | 36349 ft | 450 kts | 270° |
| 2026-05-04 21:23 | 55.10243 | -25.14372 | 36345 ft | 451 kts | 270° |
| 2026-05-04 21:23 | 55.10225 | -25.25261 | 36344 ft | 451 kts | 270° |
| 2026-05-04 21:24 | 55.10198 | -25.36221 | 36352 ft | 451 kts | 270° |
| 2026-05-04 21:24 | 55.10167 | -25.45406 | 36347 ft | 451 kts | 270° |
| 2026-05-04 21:25 | 55.10122 | -25.56297 | 36346 ft | 451 kts | 270° |
| 2026-05-04 21:25 | 55.10066 | -25.67272 | 36355 ft | 452 kts | 270° |
| 2026-05-04 21:26 | 55.10001 | -25.78246 | 36355 ft | 452 kts | 270° |
| 2026-05-04 21:26 | 55.09926 | -25.89210 | 36360 ft | 452 kts | 270° |
| 2026-05-04 21:27 | 55.09841 | -26.00196 | 36361 ft | 452 kts | 269° |
| 2026-05-04 21:27 | 55.09746 | -26.11173 | 36362 ft | 452 kts | 270° |
| 2026-05-04 21:28 | 55.09641 | -26.22165 | 36363 ft | 454 kts | 269° |
| 2026-05-04 21:28 | 55.09526 | -26.33140 | 36362 ft | 455 kts | 269° |
| 2026-05-04 21:29 | 55.09400 | -26.44198 | 36361 ft | 456 kts | 269° |
| 2026-05-04 21:29 | 55.09265 | -26.55269 | 36364 ft | 457 kts | 269° |
| 2026-05-04 21:30 | 55.09118 | -26.66371 | 36366 ft | 457 kts | 269° |
| 2026-05-04 21:30 | 55.08962 | -26.77471 | 36367 ft | 457 kts | 269° |
| 2026-05-04 21:31 | 55.08709 | -26.94129 | 36369 ft | 457 kts | 269° |
| 2026-05-04 21:32 | 55.08527 | -27.05233 | 36370 ft | 457 kts | 269° |
| 2026-05-04 21:32 | 55.08337 | -27.16260 | 36374 ft | 457 kts | 269° |
| 2026-05-04 21:33 | 55.08134 | -27.27383 | 36369 ft | 457 kts | 269° |
| 2026-05-04 21:33 | 55.07922 | -27.38482 | 36375 ft | 457 kts | 269° |
| 2026-05-04 21:34 | 55.07700 | -27.49588 | 36375 ft | 458 kts | 269° |
| 2026-05-04 21:34 | 55.07470 | -27.60630 | 36381 ft | 459 kts | 269° |
| 2026-05-04 21:35 | 55.07226 | -27.71790 | 36375 ft | 459 kts | 269° |
| 2026-05-04 21:35 | 55.06973 | -27.82936 | 36375 ft | 460 kts | 269° |
| 2026-05-04 21:36 | 55.06708 | -27.94098 | 36374 ft | 460 kts | 269° |
| 2026-05-04 21:36 | 55.06436 | -28.05201 | 36387 ft | 460 kts | 269° |
| 2026-05-04 21:37 | 55.06151 | -28.16367 | 36390 ft | 461 kts | 269° |
| 2026-05-04 21:37 | 55.05856 | -28.27553 | 36383 ft | 461 kts | 268° |
| 2026-05-04 21:38 | 55.05550 | -28.38729 | 36382 ft | 461 kts | 268° |
| 2026-05-04 21:38 | 55.05235 | -28.49896 | 36387 ft | 461 kts | 268° |
| 2026-05-04 21:39 | 55.04909 | -28.61050 | 36387 ft | 460 kts | 269° |
| 2026-05-04 21:39 | 55.04575 | -28.72138 | 36379 ft | 461 kts | 269° |
| 2026-05-04 21:40 | 55.04230 | -28.83316 | 36388 ft | 461 kts | 269° |
| 2026-05-04 21:40 | 55.03873 | -28.94505 | 36385 ft | 462 kts | 269° |
| 2026-05-04 21:41 | 55.03507 | -29.05659 | 36388 ft | 463 kts | 269° |
| 2026-05-04 21:41 | 55.03128 | -29.16878 | 36391 ft | 463 kts | 268° |
| 2026-05-04 21:42 | 55.02739 | -29.28097 | 36397 ft | 463 kts | 268° |
| 2026-05-04 21:42 | 55.02339 | -29.39328 | 36394 ft | 464 kts | 268° |
| 2026-05-04 21:43 | 55.01931 | -29.50486 | 36397 ft | 464 kts | 268° |
| 2026-05-04 21:43 | 55.01511 | -29.61711 | 36395 ft | 463 kts | 268° |
| 2026-05-04 21:44 | 55.01081 | -29.72913 | 36384 ft | 463 kts | 268° |
| 2026-05-04 21:44 | 55.00642 | -29.84103 | 36389 ft | 462 kts | 268° |
| 2026-05-04 21:45 | 55.00197 | -29.95211 | 36395 ft | 462 kts | 268° |
| 2026-05-04 21:45 | 55.00178 | -30.06338 | 36397 ft | 458 kts | 276° |
| 2026-05-04 21:46 | 55.00653 | -30.17411 | 36400 ft | 458 kts | 276° |
| 2026-05-04 21:46 | 55.01121 | -30.28496 | 36398 ft | 458 kts | 276° |
| 2026-05-04 21:47 | 55.01557 | -30.39579 | 36393 ft | 458 kts | 276° |
| 2026-05-04 21:47 | 55.01973 | -30.50645 | 36398 ft | 457 kts | 276° |
| 2026-05-04 21:48 | 55.02372 | -30.61631 | 36396 ft | 457 kts | 276° |
| 2026-05-04 21:48 | 55.02765 | -30.72704 | 36396 ft | 457 kts | 276° |
| 2026-05-04 21:49 | 55.03148 | -30.83766 | 36400 ft | 457 kts | 276° |
| 2026-05-04 21:49 | 55.03521 | -30.94841 | 36395 ft | 457 kts | 276° |
| 2026-05-04 21:50 | 55.03885 | -31.05922 | 36395 ft | 457 kts | 276° |
| 2026-05-04 21:50 | 55.04238 | -31.16983 | 36401 ft | 457 kts | 276° |
| 2026-05-04 21:51 | 55.04581 | -31.28044 | 36397 ft | 457 kts | 276° |
| 2026-05-04 21:51 | 55.04912 | -31.39050 | 36395 ft | 457 kts | 276° |
| 2026-05-04 21:52 | 55.05235 | -31.50146 | 36399 ft | 457 kts | 276° |
| 2026-05-04 21:52 | 55.05548 | -31.61216 | 36399 ft | 457 kts | 275° |
| 2026-05-04 21:53 | 55.05851 | -31.72299 | 36390 ft | 456 kts | 275° |
| 2026-05-04 21:53 | 55.06142 | -31.83299 | 36394 ft | 456 kts | 275° |
| 2026-05-04 21:54 | 55.06424 | -31.94353 | 36399 ft | 456 kts | 275° |
| 2026-05-04 21:54 | 55.06696 | -32.05416 | 36396 ft | 456 kts | 275° |
| 2026-05-04 21:55 | 55.06958 | -32.16459 | 36395 ft | 455 kts | 275° |
| 2026-05-04 21:55 | 55.07210 | -32.27506 | 36399 ft | 455 kts | 275° |
| 2026-05-04 21:56 | 55.07451 | -32.38549 | 36385 ft | 455 kts | 275° |
| 2026-05-04 21:56 | 55.07683 | -32.49593 | 36395 ft | 455 kts | 275° |
| 2026-05-04 21:57 | 55.07904 | -32.60571 | 36391 ft | 455 kts | 275° |
| 2026-05-04 21:57 | 55.08116 | -32.71617 | 36396 ft | 455 kts | 275° |
| 2026-05-04 21:58 | 55.08318 | -32.82669 | 36392 ft | 455 kts | 275° |
| 2026-05-04 21:58 | 55.08510 | -32.93737 | 36390 ft | 455 kts | 274° |
| 2026-05-04 21:59 | 55.08691 | -33.04735 | 36385 ft | 455 kts | 275° |
| 2026-05-04 21:59 | 55.08862 | -33.15784 | 36376 ft | 455 kts | 275° |
| 2026-05-04 22:00 | 55.09023 | -33.26774 | 36384 ft | 455 kts | 275° |
| 2026-05-04 22:00 | 55.09175 | -33.37820 | 36383 ft | 455 kts | 274° |
| 2026-05-04 22:01 | 55.09317 | -33.48848 | 36378 ft | 455 kts | 274° |
| 2026-05-04 22:01 | 55.09449 | -33.59901 | 36385 ft | 455 kts | 274° |
| 2026-05-04 22:02 | 55.09570 | -33.70941 | 36370 ft | 454 kts | 275° |
| 2026-05-04 22:02 | 55.09682 | -33.81961 | 36373 ft | 454 kts | 275° |
| 2026-05-04 22:03 | 55.09783 | -33.92988 | 36374 ft | 454 kts | 275° |
| 2026-05-04 22:03 | 55.09875 | -34.04034 | 36371 ft | 454 kts | 274° |
| 2026-05-04 22:04 | 55.09957 | -34.15007 | 36371 ft | 454 kts | 274° |
| 2026-05-04 22:04 | 55.10029 | -34.26053 | 36371 ft | 455 kts | 274° |
| 2026-05-04 22:05 | 55.10090 | -34.37084 | 36360 ft | 454 kts | 275° |
| 2026-05-04 22:05 | 55.10141 | -34.48116 | 36360 ft | 453 kts | 275° |
| 2026-05-04 22:06 | 55.10183 | -34.59124 | 36366 ft | 452 kts | 274° |
| 2026-05-04 22:06 | 55.10215 | -34.70098 | 36365 ft | 452 kts | 274° |
| 2026-05-04 22:07 | 55.10237 | -34.81001 | 36359 ft | 451 kts | 275° |
| 2026-05-04 22:07 | 55.10250 | -34.91960 | 36361 ft | 451 kts | 275° |
| 2026-05-04 22:08 | 55.10252 | -35.02930 | 36332 ft | 451 kts | 275° |
| 2026-05-04 22:08 | 55.10244 | -35.13863 | 36347 ft | 449 kts | 275° |
| 2026-05-04 22:09 | 55.10226 | -35.24758 | 36352 ft | 448 kts | 275° |
| 2026-05-04 22:09 | 55.10200 | -35.35657 | 36355 ft | 448 kts | 275° |
| 2026-05-04 22:10 | 55.10163 | -35.46455 | 36354 ft | 447 kts | 275° |
| 2026-05-04 22:10 | 55.10117 | -35.57323 | 36347 ft | 447 kts | 274° |
| 2026-05-04 22:11 | 55.10062 | -35.68187 | 36341 ft | 447 kts | 275° |
| 2026-05-04 22:11 | 55.10008 | -35.77211 | 36347 ft | 447 kts | 275° |
| 2026-05-04 22:12 | 55.09934 | -35.88094 | 36341 ft | 447 kts | 274° |
| 2026-05-04 22:12 | 55.09837 | -36.00732 | 36343 ft | 447 kts | 274° |
| 2026-05-04 22:13 | 55.09759 | -36.09759 | 36340 ft | 447 kts | 274° |
| 2026-05-04 22:13 | 55.09656 | -36.20622 | 36339 ft | 447 kts | 274° |
| 2026-05-04 22:14 | 55.09544 | -36.31496 | 36335 ft | 447 kts | 274° |
| 2026-05-04 22:14 | 55.09422 | -36.42276 | 36317 ft | 445 kts | 274° |
| 2026-05-04 22:15 | 55.09291 | -36.53043 | 36333 ft | 443 kts | 274° |
| 2026-05-04 22:15 | 55.09152 | -36.63774 | 36308 ft | 441 kts | 274° |
| 2026-05-04 22:16 | 55.09005 | -36.74401 | 36320 ft | 439 kts | 274° |
| 2026-05-04 22:16 | 55.08849 | -36.85066 | 36326 ft | 439 kts | 274° |
| 2026-05-04 22:17 | 55.08683 | -36.95728 | 36317 ft | 439 kts | 274° |
| 2026-05-04 22:17 | 55.08508 | -37.06384 | 36312 ft | 438 kts | 273° |
| 2026-05-04 22:18 | 55.08323 | -37.17051 | 36311 ft | 439 kts | 273° |
| 2026-05-04 22:18 | 55.08130 | -37.27664 | 36314 ft | 440 kts | 273° |
| 2026-05-04 22:19 | 55.07926 | -37.38371 | 36313 ft | 441 kts | 273° |
| 2026-05-04 22:19 | 55.07711 | -37.49091 | 36302 ft | 442 kts | 273° |
| 2026-05-04 22:20 | 55.07489 | -37.59755 | 36302 ft | 442 kts | 272° |
| 2026-05-04 22:20 | 55.07257 | -37.70492 | 36288 ft | 442 kts | 271° |
| 2026-05-04 22:21 | 55.07012 | -37.81220 | 36289 ft | 441 kts | 271° |
| 2026-05-04 22:21 | 55.06760 | -37.91905 | 36286 ft | 440 kts | 271° |
| 2026-05-04 22:22 | 55.06501 | -38.02565 | 36279 ft | 439 kts | 271° |
| 2026-05-04 22:22 | 55.06234 | -38.13138 | 36287 ft | 438 kts | 271° |
| 2026-05-04 22:23 | 55.05956 | -38.23766 | 36268 ft | 438 kts | 271° |
| 2026-05-04 22:23 | 55.05670 | -38.34387 | 36242 ft | 437 kts | 270° |
| 2026-05-04 22:24 | 55.05376 | -38.44960 | 36264 ft | 436 kts | 270° |
| 2026-05-04 22:24 | 55.05073 | -38.55499 | 36252 ft | 435 kts | 270° |
| 2026-05-04 22:25 | 55.04763 | -38.65974 | 36259 ft | 434 kts | 270° |
| 2026-05-04 22:25 | 55.04442 | -38.76506 | 36255 ft | 434 kts | 270° |
| 2026-05-04 22:26 | 55.04112 | -38.87043 | 36252 ft | 435 kts | 270° |
| 2026-05-04 22:26 | 55.03775 | -38.97525 | 36244 ft | 435 kts | 270° |
| 2026-05-04 22:27 | 55.03427 | -39.08073 | 36232 ft | 437 kts | 269° |
| 2026-05-04 22:27 | 55.03067 | -39.18662 | 36249 ft | 439 kts | 269° |
| 2026-05-04 22:28 | 55.02696 | -39.29323 | 36224 ft | 441 kts | 269° |
| 2026-05-04 22:28 | 55.02317 | -39.39948 | 36219 ft | 442 kts | 269° |
| 2026-05-04 22:29 | 55.01925 | -39.50659 | 36223 ft | 443 kts | 268° |
| 2026-05-04 22:29 | 55.01523 | -39.61379 | 36219 ft | 443 kts | 268° |
| 2026-05-04 22:30 | 55.01115 | -39.72028 | 36207 ft | 443 kts | 268° |
| 2026-05-04 22:30 | 55.00695 | -39.82748 | 36200 ft | 444 kts | 268° |
| 2026-05-04 22:31 | 55.00266 | -39.93499 | 36199 ft | 445 kts | 268° |
| 2026-05-04 22:31 | 54.99799 | -40.04281 | 36199 ft | 446 kts | 266° |
| 2026-05-04 22:32 | 54.99176 | -40.15065 | 36189 ft | 447 kts | 266° |
| 2026-05-04 22:32 | 54.98517 | -40.25789 | 36194 ft | 448 kts | 266° |
| 2026-05-04 22:32 | 54.98186 | -40.31210 | 36324 ft | 451 kts | 266° |
| 2026-05-04 22:33 | 54.97856 | -40.36630 | 36745 ft | 447 kts | 265° |
| 2026-05-04 22:33 | 54.97530 | -40.41987 | 37239 ft | 443 kts | 265° |
| 2026-05-04 22:33 | 54.97205 | -40.47306 | 37671 ft | 440 kts | 265° |
| 2026-05-04 22:33 | 54.96881 | -40.52606 | 38016 ft | 439 kts | 265° |
| 2026-05-04 22:34 | 54.96555 | -40.57896 | 38108 ft | 442 kts | 265° |
| 2026-05-04 22:34 | 54.95893 | -40.68552 | 38160 ft | 442 kts | 265° |
| 2026-05-04 22:35 | 54.95228 | -40.79078 | 38166 ft | 438 kts | 265° |
| 2026-05-04 22:35 | 54.94556 | -40.89581 | 38148 ft | 436 kts | 265° |
| 2026-05-04 22:36 | 54.93878 | -41.00036 | 38159 ft | 434 kts | 264° |
| 2026-05-04 22:36 | 54.93193 | -41.10447 | 38135 ft | 432 kts | 264° |
| 2026-05-04 22:37 | 54.92500 | -41.20826 | 38136 ft | 431 kts | 263° |
| 2026-05-04 22:37 | 54.91804 | -41.31124 | 38131 ft | 431 kts | 263° |
| 2026-05-04 22:38 | 54.91096 | -41.41480 | 38121 ft | 431 kts | 263° |
| 2026-05-04 22:38 | 54.90378 | -41.51843 | 38126 ft | 432 kts | 263° |
| 2026-05-04 22:39 | 54.89651 | -41.62215 | 38110 ft | 433 kts | 261° |
| 2026-05-04 22:39 | 54.88917 | -41.72546 | 38102 ft | 434 kts | 261° |
| 2026-05-04 22:40 | 54.88167 | -41.82963 | 38106 ft | 435 kts | 261° |
| 2026-05-04 22:40 | 54.87407 | -41.93396 | 38101 ft | 435 kts | 261° |
| 2026-05-04 22:41 | 54.86638 | -42.03832 | 38092 ft | 436 kts | 260° |
| 2026-05-04 22:41 | 54.85861 | -42.14252 | 38079 ft | 436 kts | 260° |
| 2026-05-04 22:42 | 54.85073 | -42.24687 | 38077 ft | 435 kts | 260° |
| 2026-05-04 22:42 | 54.84283 | -42.35041 | 38080 ft | 435 kts | 260° |
| 2026-05-04 22:43 | 54.83480 | -42.45443 | 38075 ft | 435 kts | 260° |
| 2026-05-04 22:43 | 54.82666 | -42.55861 | 38062 ft | 435 kts | 259° |
| 2026-05-04 22:44 | 54.81843 | -42.66274 | 38044 ft | 435 kts | 259° |
| 2026-05-04 22:44 | 54.81017 | -42.76618 | 38047 ft | 435 kts | 259° |
| 2026-05-04 22:45 | 54.80176 | -42.87020 | 38041 ft | 435 kts | 259° |
| 2026-05-04 22:45 | 54.78896 | -43.02645 | 38029 ft | 436 kts | 258° |
| 2026-05-04 22:46 | 54.78032 | -43.13060 | 38029 ft | 437 kts | 258° |
| 2026-05-04 22:46 | 54.77164 | -43.23410 | 38005 ft | 437 kts | 258° |
| 2026-05-04 22:47 | 54.76279 | -43.33842 | 38005 ft | 437 kts | 258° |
| 2026-05-04 22:47 | 54.75387 | -43.44258 | 38004 ft | 438 kts | 257° |
| 2026-05-04 22:48 | 54.74482 | -43.54709 | 37996 ft | 439 kts | 256° |
| 2026-05-04 22:48 | 54.73570 | -43.65133 | 37968 ft | 441 kts | 256° |
| 2026-05-04 22:49 | 54.72641 | -43.75641 | 37978 ft | 442 kts | 256° |
| 2026-05-04 22:49 | 54.71696 | -43.86217 | 37971 ft | 444 kts | 256° |
| 2026-05-04 22:50 | 54.70751 | -43.96706 | 37956 ft | 444 kts | 256° |
| 2026-05-04 22:50 | 54.69789 | -44.07266 | 37946 ft | 445 kts | 256° |
| 2026-05-04 22:51 | 54.68817 | -44.17839 | 37941 ft | 445 kts | 255° |
| 2026-05-04 22:51 | 54.67834 | -44.28420 | 37937 ft | 446 kts | 255° |
| 2026-05-04 22:52 | 54.66841 | -44.38991 | 37947 ft | 446 kts | 255° |
| 2026-05-04 22:52 | 54.65836 | -44.49594 | 37914 ft | 447 kts | 255° |
| 2026-05-04 22:53 | 54.64827 | -44.60141 | 37905 ft | 448 kts | 255° |
| 2026-05-04 22:53 | 54.63797 | -44.70800 | 37892 ft | 449 kts | 255° |
| 2026-05-04 22:54 | 54.62760 | -44.81432 | 37898 ft | 450 kts | 254° |
| 2026-05-04 22:54 | 54.61716 | -44.92027 | 37875 ft | 451 kts | 254° |
| 2026-05-04 22:55 | 54.60655 | -45.02711 | 37869 ft | 452 kts | 254° |
| 2026-05-04 22:55 | 54.59582 | -45.13412 | 37870 ft | 452 kts | 253° |
| 2026-05-04 22:56 | 54.58498 | -45.24117 | 37853 ft | 453 kts | 253° |
| 2026-05-04 22:56 | 54.57405 | -45.34818 | 37877 ft | 453 kts | 253° |
| 2026-05-04 22:57 | 54.56308 | -45.45459 | 37847 ft | 455 kts | 253° |
| 2026-05-04 22:57 | 54.55187 | -45.56219 | 37836 ft | 457 kts | 252° |
| 2026-05-04 22:58 | 54.54052 | -45.67023 | 37822 ft | 459 kts | 252° |
| 2026-05-04 22:58 | 54.52902 | -45.77870 | 37821 ft | 461 kts | 252° |
| 2026-05-04 22:59 | 54.51741 | -45.88734 | 37823 ft | 462 kts | 252° |
| 2026-05-04 22:59 | 54.50567 | -45.99627 | 37798 ft | 462 kts | 252° |
| 2026-05-04 23:00 | 54.49390 | -46.10449 | 37803 ft | 463 kts | 252° |
| 2026-05-04 23:00 | 54.48191 | -46.21360 | 37795 ft | 464 kts | 252° |
| 2026-05-04 23:01 | 54.46979 | -46.32304 | 37803 ft | 466 kts | 252° |
| 2026-05-04 23:01 | 54.45755 | -46.43255 | 37781 ft | 467 kts | 251° |
| 2026-05-04 23:02 | 54.44727 | -46.52389 | 37776 ft | 468 kts | 251° |
| 2026-05-04 23:02 | 54.43477 | -46.63399 | 37774 ft | 469 kts | 251° |
| 2026-05-04 23:03 | 54.42214 | -46.74431 | 37761 ft | 471 kts | 251° |
| 2026-05-04 23:03 | 54.40937 | -46.85484 | 37759 ft | 473 kts | 251° |
| 2026-05-04 23:04 | 54.39653 | -46.96518 | 37738 ft | 474 kts | 251° |
| 2026-05-04 23:04 | 54.38346 | -47.07649 | 37734 ft | 474 kts | 251° |
| 2026-05-04 23:05 | 54.37040 | -47.18679 | 37734 ft | 475 kts | 251° |
| 2026-05-04 23:05 | 54.35715 | -47.29778 | 37760 ft | 475 kts | 251° |
| 2026-05-04 23:06 | 54.34372 | -47.40922 | 37727 ft | 477 kts | 251° |
| 2026-05-04 23:06 | 54.33019 | -47.52065 | 37713 ft | 477 kts | 251° |
| 2026-05-04 23:07 | 54.31655 | -47.63206 | 37711 ft | 478 kts | 251° |
| 2026-05-04 23:07 | 54.30288 | -47.74287 | 37704 ft | 478 kts | 251° |
| 2026-05-04 23:08 | 54.28901 | -47.85437 | 37700 ft | 478 kts | 251° |
| 2026-05-04 23:08 | 54.27501 | -47.96601 | 37689 ft | 480 kts | 250° |
| 2026-05-04 23:09 | 54.26088 | -48.07770 | 37693 ft | 480 kts | 250° |
| 2026-05-04 23:09 | 54.24672 | -48.18877 | 37706 ft | 481 kts | 250° |
| 2026-05-04 23:10 | 54.23237 | -48.30042 | 37683 ft | 482 kts | 250° |
| 2026-05-04 23:10 | 54.21787 | -48.41246 | 37674 ft | 483 kts | 250° |
| 2026-05-04 23:11 | 54.20325 | -48.52448 | 37673 ft | 483 kts | 250° |
| 2026-05-04 23:11 | 54.18851 | -48.63660 | 37655 ft | 484 kts | 250° |
| 2026-05-04 23:12 | 54.17366 | -48.74866 | 37653 ft | 484 kts | 250° |
| 2026-05-04 23:12 | 54.15880 | -48.85989 | 37654 ft | 484 kts | 250° |
| 2026-05-04 23:13 | 54.14376 | -48.97171 | 37638 ft | 483 kts | 250° |
| 2026-05-04 23:13 | 54.12860 | -49.08348 | 37637 ft | 483 kts | 250° |
| 2026-05-04 23:14 | 54.11331 | -49.19533 | 37624 ft | 485 kts | 250° |
| 2026-05-04 23:14 | 54.09789 | -49.30731 | 37635 ft | 485 kts | 250° |
| 2026-05-04 23:15 | 54.08245 | -49.41864 | 37614 ft | 486 kts | 249° |
| 2026-05-04 23:15 | 54.06680 | -49.53073 | 37615 ft | 487 kts | 249° |
| 2026-05-04 23:16 | 54.05101 | -49.64292 | 37604 ft | 487 kts | 249° |
| 2026-05-04 23:16 | 54.03510 | -49.75513 | 37625 ft | 488 kts | 249° |
| 2026-05-04 23:17 | 54.01905 | -49.86764 | 37601 ft | 489 kts | 249° |
| 2026-05-04 23:17 | 54.00275 | -49.98015 | 37592 ft | 489 kts | 248° |
| 2026-05-04 23:18 | 53.97990 | -50.08775 | 37592 ft | 482 kts | 240° |
| 2026-05-04 23:18 | 53.95390 | -50.19281 | 37579 ft | 483 kts | 240° |
| 2026-05-04 23:19 | 53.92801 | -50.29737 | 37579 ft | 484 kts | 240° |
| 2026-05-04 23:19 | 53.90203 | -50.40308 | 37572 ft | 485 kts | 240° |
| 2026-05-04 23:20 | 53.87605 | -50.50890 | 37559 ft | 486 kts | 240° |
| 2026-05-04 23:20 | 53.84996 | -50.61480 | 37549 ft | 487 kts | 240° |
| 2026-05-04 23:21 | 53.82377 | -50.72054 | 37533 ft | 487 kts | 240° |
| 2026-05-04 23:21 | 53.79760 | -50.82562 | 37536 ft | 488 kts | 240° |
| 2026-05-04 23:22 | 53.77112 | -50.93140 | 37529 ft | 488 kts | 240° |
| 2026-05-04 23:22 | 53.74461 | -51.03681 | 37515 ft | 487 kts | 240° |
| 2026-05-04 23:23 | 53.71799 | -51.14219 | 37502 ft | 487 kts | 240° |
| 2026-05-04 23:23 | 53.69148 | -51.24662 | 37529 ft | 487 kts | 240° |
| 2026-05-04 23:24 | 53.66467 | -51.35170 | 37500 ft | 489 kts | 240° |
| 2026-05-04 23:24 | 53.63770 | -51.45690 | 37501 ft | 489 kts | 240° |
| 2026-05-04 23:25 | 53.61060 | -51.56217 | 37475 ft | 489 kts | 240° |
| 2026-05-04 23:25 | 53.58340 | -51.66735 | 37467 ft | 490 kts | 240° |
| 2026-05-04 23:26 | 53.55609 | -51.77244 | 37504 ft | 490 kts | 240° |
| 2026-05-04 23:26 | 53.52865 | -51.87753 | 37459 ft | 491 kts | 240° |
| 2026-05-04 23:27 | 53.50112 | -51.98249 | 37451 ft | 491 kts | 240° |
| 2026-05-04 23:27 | 53.47360 | -52.08692 | 37431 ft | 491 kts | 240° |
| 2026-05-04 23:28 | 53.44580 | -52.19195 | 37429 ft | 491 kts | 240° |
| 2026-05-04 23:28 | 53.41797 | -52.29659 | 37444 ft | 492 kts | 240° |
| 2026-05-04 23:29 | 53.39015 | -52.40071 | 37432 ft | 492 kts | 240° |
| 2026-05-04 23:29 | 53.36209 | -52.50523 | 37409 ft | 492 kts | 240° |
| 2026-05-04 23:30 | 53.33394 | -52.60964 | 37406 ft | 492 kts | 240° |
| 2026-05-04 23:30 | 53.30564 | -52.71412 | 37394 ft | 492 kts | 240° |
| 2026-05-04 23:31 | 53.27731 | -52.81821 | 37388 ft | 493 kts | 240° |
| 2026-05-04 23:31 | 53.24886 | -52.92233 | 37376 ft | 492 kts | 240° |
| 2026-05-04 23:32 | 53.22051 | -53.02558 | 37371 ft | 492 kts | 240° |
| 2026-05-04 23:32 | 53.19194 | -53.12918 | 37362 ft | 491 kts | 240° |
| 2026-05-04 23:33 | 53.16333 | -53.23245 | 37365 ft | 491 kts | 240° |
| 2026-05-04 23:33 | 53.13462 | -53.33562 | 37355 ft | 491 kts | 240° |
| 2026-05-04 23:34 | 53.10580 | -53.43874 | 37343 ft | 490 kts | 240° |
| 2026-05-04 23:34 | 53.07696 | -53.54146 | 37361 ft | 490 kts | 240° |
| 2026-05-04 23:35 | 53.04804 | -53.64402 | 37338 ft | 490 kts | 240° |
| 2026-05-04 23:35 | 53.01900 | -53.74654 | 37330 ft | 489 kts | 240° |
| 2026-05-04 23:36 | 52.99014 | -53.84802 | 37321 ft | 489 kts | 240° |
| 2026-05-04 23:36 | 52.96094 | -53.95020 | 37321 ft | 489 kts | 240° |
| 2026-05-04 23:37 | 52.93170 | -54.05213 | 37314 ft | 489 kts | 239° |
| 2026-05-04 23:37 | 52.90237 | -54.15389 | 37314 ft | 490 kts | 239° |
| 2026-05-04 23:38 | 52.87291 | -54.25568 | 37302 ft | 490 kts | 240° |
| 2026-05-04 23:38 | 52.84336 | -54.35734 | 37298 ft | 489 kts | 239° |
| 2026-05-04 23:39 | 52.81400 | -54.45792 | 37290 ft | 489 kts | 239° |
| 2026-05-04 23:39 | 52.78438 | -54.55897 | 37282 ft | 488 kts | 239° |
| 2026-05-04 23:40 | 52.75471 | -54.65975 | 37310 ft | 488 kts | 240° |
| 2026-05-04 23:40 | 52.72493 | -54.76048 | 37281 ft | 488 kts | 239° |
| 2026-05-04 23:41 | 52.69508 | -54.86099 | 37278 ft | 488 kts | 239° |
| 2026-05-04 23:41 | 52.66517 | -54.96134 | 37269 ft | 487 kts | 239° |
| 2026-05-04 23:42 | 52.63519 | -55.06146 | 37261 ft | 487 kts | 239° |
| 2026-05-04 23:42 | 52.60512 | -55.16147 | 37267 ft | 487 kts | 240° |
| 2026-05-04 23:43 | 52.57499 | -55.26128 | 37248 ft | 486 kts | 240° |
| 2026-05-04 23:43 | 52.54485 | -55.36071 | 37242 ft | 486 kts | 240° |
| 2026-05-04 23:44 | 52.51483 | -55.45932 | 37235 ft | 485 kts | 239° |
| 2026-05-04 23:44 | 52.48453 | -55.55846 | 37226 ft | 485 kts | 239° |
| 2026-05-04 23:45 | 52.45415 | -55.65744 | 37233 ft | 485 kts | 240° |
| 2026-05-04 23:45 | 52.42375 | -55.75617 | 37231 ft | 486 kts | 240° |
| 2026-05-04 23:46 | 52.39308 | -55.85491 | 37226 ft | 486 kts | 238° |
| 2026-05-04 23:46 | 52.36021 | -55.95067 | 37225 ft | 486 kts | 236° |
| 2026-05-04 23:47 | 52.32590 | -56.04615 | 37244 ft | 486 kts | 236° |
| 2026-05-04 23:47 | 52.29169 | -56.14183 | 37230 ft | 487 kts | 237° |
| 2026-05-04 23:48 | 52.25786 | -56.23722 | 37221 ft | 487 kts | 237° |
| 2026-05-04 23:48 | 52.22388 | -56.33306 | 37220 ft | 487 kts | 237° |
| 2026-05-04 23:49 | 52.18989 | -56.42864 | 37215 ft | 487 kts | 237° |
| 2026-05-04 23:49 | 52.15606 | -56.52329 | 37220 ft | 486 kts | 237° |
| 2026-05-04 23:50 | 52.12203 | -56.61814 | 37222 ft | 484 kts | 237° |
| 2026-05-04 23:50 | 52.08799 | -56.71268 | 37219 ft | 483 kts | 237° |
| 2026-05-04 23:51 | 52.05393 | -56.80687 | 37218 ft | 482 kts | 237° |
| 2026-05-04 23:51 | 52.01990 | -56.90065 | 37224 ft | 482 kts | 237° |
| 2026-05-04 23:52 | 51.98601 | -56.99371 | 37220 ft | 481 kts | 237° |
| 2026-05-04 23:52 | 51.95187 | -57.08709 | 37217 ft | 481 kts | 237° |
| 2026-05-04 23:53 | 51.91766 | -57.18032 | 37219 ft | 481 kts | 237° |
| 2026-05-04 23:53 | 51.88916 | -57.25775 | 37228 ft | 482 kts | 237° |
| 2026-05-04 23:54 | 51.85475 | -57.35090 | 37228 ft | 482 kts | 237° |
| 2026-05-04 23:54 | 51.82022 | -57.44405 | 37229 ft | 483 kts | 237° |
| 2026-05-04 23:55 | 51.78557 | -57.53716 | 37232 ft | 483 kts | 237° |
| 2026-05-04 23:56 | 51.73341 | -57.67671 | 37236 ft | 484 kts | 237° |
| 2026-05-04 23:56 | 51.69853 | -57.76960 | 37221 ft | 483 kts | 237° |
| 2026-05-04 23:57 | 51.66389 | -57.86153 | 37220 ft | 483 kts | 237° |
| 2026-05-04 23:57 | 51.62900 | -57.95380 | 37240 ft | 482 kts | 237° |
| 2026-05-04 23:58 | 51.59404 | -58.04589 | 37230 ft | 481 kts | 237° |
| 2026-05-04 23:58 | 51.55904 | -58.13776 | 37235 ft | 481 kts | 237° |
| 2026-05-04 23:59 | 51.52424 | -58.22877 | 37241 ft | 481 kts | 237° |
| 2026-05-04 23:59 | 51.48916 | -58.32022 | 37236 ft | 481 kts | 237° |
| 2026-05-05 00:00 | 51.45401 | -58.41150 | 37235 ft | 481 kts | 237° |
| 2026-05-05 00:00 | 51.41877 | -58.50270 | 37251 ft | 481 kts | 237° |
| 2026-05-05 00:01 | 51.38347 | -58.59373 | 37250 ft | 481 kts | 237° |
| 2026-05-05 00:01 | 51.34806 | -58.68471 | 37233 ft | 481 kts | 237° |
| 2026-05-05 00:02 | 51.31282 | -58.77493 | 37232 ft | 481 kts | 237° |
| 2026-05-05 00:02 | 51.27725 | -58.86569 | 37231 ft | 482 kts | 236° |
| 2026-05-05 00:03 | 51.24170 | -58.95610 | 37236 ft | 481 kts | 237° |
| 2026-05-05 00:03 | 51.20603 | -59.04647 | 37230 ft | 481 kts | 236° |
| 2026-05-05 00:04 | 51.17026 | -59.13678 | 37230 ft | 481 kts | 236° |
| 2026-05-05 00:04 | 51.13445 | -59.22688 | 37226 ft | 481 kts | 236° |
| 2026-05-05 00:05 | 51.09858 | -59.31683 | 37236 ft | 480 kts | 237° |
| 2026-05-05 00:05 | 51.06292 | -59.40592 | 37226 ft | 480 kts | 237° |
| 2026-05-05 00:06 | 51.02702 | -59.49534 | 37230 ft | 479 kts | 236° |
| 2026-05-05 00:06 | 50.99107 | -59.58455 | 37223 ft | 479 kts | 236° |
| 2026-05-05 00:07 | 50.95510 | -59.67349 | 37232 ft | 478 kts | 237° |
| 2026-05-05 00:07 | 50.91911 | -59.76220 | 37237 ft | 478 kts | 236° |
| 2026-05-05 00:08 | 50.88301 | -59.85086 | 37238 ft | 478 kts | 236° |
| 2026-05-05 00:08 | 50.84688 | -59.93928 | 37251 ft | 478 kts | 236° |
| 2026-05-05 00:09 | 50.81091 | -60.02706 | 37245 ft | 478 kts | 236° |
| 2026-05-05 00:09 | 50.77471 | -60.11506 | 37265 ft | 477 kts | 236° |
| 2026-05-05 00:10 | 50.73848 | -60.20286 | 37260 ft | 477 kts | 236° |
| 2026-05-05 00:10 | 50.70226 | -60.29034 | 37273 ft | 476 kts | 236° |
| 2026-05-05 00:11 | 50.66595 | -60.37773 | 37298 ft | 475 kts | 236° |
| 2026-05-05 00:11 | 50.62978 | -60.46451 | 37299 ft | 475 kts | 236° |
| 2026-05-05 00:12 | 50.59348 | -60.55127 | 37301 ft | 474 kts | 236° |
| 2026-05-05 00:12 | 50.55712 | -60.63794 | 37306 ft | 473 kts | 236° |
| 2026-05-05 00:13 | 50.52076 | -60.72429 | 37319 ft | 473 kts | 236° |
| 2026-05-05 00:13 | 50.48438 | -60.81041 | 37328 ft | 473 kts | 236° |
| 2026-05-05 00:14 | 50.44809 | -60.89604 | 37331 ft | 473 kts | 236° |
| 2026-05-05 00:14 | 50.41161 | -60.98185 | 37341 ft | 472 kts | 236° |
| 2026-05-05 00:15 | 50.37508 | -61.06749 | 37339 ft | 472 kts | 236° |
| 2026-05-05 00:15 | 50.33850 | -61.15297 | 37354 ft | 473 kts | 236° |
| 2026-05-05 00:16 | 50.30181 | -61.23841 | 37336 ft | 472 kts | 236° |
| 2026-05-05 00:16 | 50.26520 | -61.32341 | 37339 ft | 469 kts | 236° |
| 2026-05-05 00:17 | 50.22880 | -61.40765 | 37341 ft | 466 kts | 236° |
| 2026-05-05 00:17 | 50.19268 | -61.49095 | 37345 ft | 467 kts | 236° |
| 2026-05-05 00:18 | 50.15603 | -61.57524 | 37358 ft | 472 kts | 236° |
| 2026-05-05 00:18 | 50.11908 | -61.65992 | 37353 ft | 472 kts | 236° |
| 2026-05-05 00:19 | 50.08218 | -61.74425 | 37354 ft | 470 kts | 236° |
| 2026-05-05 00:19 | 50.04534 | -61.82814 | 37355 ft | 469 kts | 236° |
| 2026-05-05 00:20 | 50.00848 | -61.91183 | 37402 ft | 468 kts | 236° |
| 2026-05-05 00:20 | 49.97188 | -61.99467 | 37422 ft | 467 kts | 236° |
| 2026-05-05 00:21 | 49.93498 | -62.07790 | 37424 ft | 467 kts | 236° |
| 2026-05-05 00:21 | 49.89801 | -62.16102 | 37444 ft | 466 kts | 236° |
| 2026-05-05 00:22 | 49.86100 | -62.24400 | 37438 ft | 469 kts | 236° |
| 2026-05-05 00:22 | 49.82393 | -62.32686 | 37438 ft | 470 kts | 236° |
| 2026-05-05 00:23 | 49.78671 | -62.40977 | 37440 ft | 467 kts | 236° |
| 2026-05-05 00:23 | 49.74962 | -62.49215 | 37447 ft | 466 kts | 235° |
| 2026-05-05 00:24 | 49.71241 | -62.57456 | 37454 ft | 467 kts | 236° |
| 2026-05-05 00:24 | 49.67536 | -62.65632 | 37453 ft | 468 kts | 235° |
| 2026-05-05 00:25 | 49.63791 | -62.73874 | 37476 ft | 469 kts | 235° |
| 2026-05-05 00:25 | 49.60027 | -62.82130 | 37474 ft | 471 kts | 235° |
| 2026-05-05 00:26 | 49.56256 | -62.90378 | 37487 ft | 471 kts | 235° |
| 2026-05-05 00:26 | 49.52474 | -62.98622 | 37497 ft | 470 kts | 235° |
| 2026-05-05 00:27 | 49.48704 | -63.06815 | 37496 ft | 469 kts | 235° |
| 2026-05-05 00:27 | 49.44956 | -63.14934 | 37522 ft | 468 kts | 236° |
| 2026-05-05 00:28 | 49.41184 | -63.23086 | 37527 ft | 469 kts | 235° |
| 2026-05-05 00:28 | 49.37395 | -63.31245 | 37529 ft | 470 kts | 235° |
| 2026-05-05 00:29 | 49.33591 | -63.39411 | 37542 ft | 468 kts | 235° |
| 2026-05-05 00:29 | 49.29810 | -63.47502 | 37535 ft | 465 kts | 235° |
| 2026-05-05 00:30 | 49.26046 | -63.55536 | 37541 ft | 462 kts | 235° |
| 2026-05-05 00:30 | 49.22279 | -63.63548 | 37545 ft | 463 kts | 235° |
| 2026-05-05 00:31 | 49.18517 | -63.71531 | 37548 ft | 467 kts | 235° |
| 2026-05-05 00:31 | 49.14697 | -63.79610 | 37544 ft | 468 kts | 235° |
| 2026-05-05 00:32 | 49.10897 | -63.87622 | 37555 ft | 464 kts | 235° |
| 2026-05-05 00:32 | 49.07107 | -63.95589 | 37565 ft | 464 kts | 235° |
| 2026-05-05 00:33 | 49.03311 | -64.03547 | 37553 ft | 464 kts | 234° |
| 2026-05-05 00:33 | 48.99498 | -64.11514 | 37571 ft | 467 kts | 235° |
| 2026-05-05 00:34 | 48.95663 | -64.19506 | 37566 ft | 473 kts | 235° |
| 2026-05-05 00:34 | 48.91766 | -64.27602 | 37562 ft | 475 kts | 235° |
| 2026-05-05 00:35 | 48.87880 | -64.35649 | 37548 ft | 469 kts | 235° |
| 2026-05-05 00:35 | 48.84036 | -64.43585 | 37557 ft | 465 kts | 234° |
| 2026-05-05 00:36 | 48.80205 | -64.51471 | 37566 ft | 463 kts | 234° |
| 2026-05-05 00:36 | 48.76391 | -64.59303 | 37568 ft | 464 kts | 234° |
| 2026-05-05 00:37 | 48.72532 | -64.67204 | 37561 ft | 467 kts | 234° |
| 2026-05-05 00:37 | 48.68642 | -64.75142 | 37590 ft | 469 kts | 234° |
| 2026-05-05 00:38 | 48.64740 | -64.83083 | 37593 ft | 472 kts | 234° |
| 2026-05-05 00:38 | 48.60839 | -64.90997 | 37603 ft | 473 kts | 234° |
| 2026-05-05 00:39 | 48.56896 | -64.98970 | 37608 ft | 474 kts | 234° |
| 2026-05-05 00:39 | 48.52943 | -65.06943 | 37616 ft | 473 kts | 234° |
| 2026-05-05 00:40 | 48.48996 | -65.14884 | 37620 ft | 472 kts | 234° |
| 2026-05-05 00:40 | 48.45049 | -65.22799 | 37620 ft | 471 kts | 234° |
| 2026-05-05 00:41 | 48.41132 | -65.30629 | 37612 ft | 470 kts | 234° |
| 2026-05-05 00:41 | 48.37190 | -65.38487 | 37605 ft | 470 kts | 234° |
| 2026-05-05 00:42 | 48.33916 | -65.44997 | 37611 ft | 469 kts | 234° |
| 2026-05-05 00:42 | 48.29969 | -65.52824 | 37627 ft | 469 kts | 234° |
| 2026-05-05 00:43 | 48.26022 | -65.60629 | 37628 ft | 470 kts | 234° |
| 2026-05-05 00:43 | 48.22064 | -65.68431 | 37641 ft | 470 kts | 234° |
| 2026-05-05 00:44 | 48.18101 | -65.76222 | 37649 ft | 470 kts | 234° |
| 2026-05-05 00:44 | 48.14134 | -65.83998 | 37653 ft | 470 kts | 234° |
| 2026-05-05 00:45 | 48.10153 | -65.91779 | 37660 ft | 470 kts | 234° |
| 2026-05-05 00:45 | 48.06161 | -65.99559 | 37660 ft | 470 kts | 234° |
| 2026-05-05 00:46 | 48.02176 | -66.07306 | 37661 ft | 470 kts | 234° |
| 2026-05-05 00:46 | 47.98211 | -66.14989 | 37675 ft | 470 kts | 234° |
| 2026-05-05 00:47 | 47.94218 | -66.22706 | 37662 ft | 470 kts | 234° |
| 2026-05-05 00:47 | 47.90216 | -66.30418 | 37650 ft | 469 kts | 234° |
| 2026-05-05 00:48 | 47.86215 | -66.38104 | 37652 ft | 469 kts | 234° |
| 2026-05-05 00:48 | 47.82213 | -66.45774 | 37659 ft | 469 kts | 234° |
| 2026-05-05 00:49 | 47.78201 | -66.53440 | 37684 ft | 469 kts | 234° |
| 2026-05-05 00:49 | 47.74187 | -66.61087 | 37676 ft | 468 kts | 234° |
| 2026-05-05 00:50 | 47.70180 | -66.68700 | 37683 ft | 468 kts | 234° |
| 2026-05-05 00:50 | 47.66185 | -66.76271 | 37687 ft | 468 kts | 234° |
| 2026-05-05 00:51 | 47.62167 | -66.83863 | 37695 ft | 467 kts | 234° |
| 2026-05-05 00:51 | 47.58145 | -66.91444 | 37693 ft | 467 kts | 234° |
| 2026-05-05 00:52 | 47.54120 | -66.99010 | 37704 ft | 466 kts | 234° |
| 2026-05-05 00:52 | 47.50123 | -67.06499 | 37712 ft | 466 kts | 234° |
| 2026-05-05 00:53 | 47.46101 | -67.14017 | 37719 ft | 466 kts | 234° |
| 2026-05-05 00:53 | 47.42074 | -67.21526 | 37701 ft | 466 kts | 235° |
| 2026-05-05 00:54 | 47.38165 | -67.29144 | 37724 ft | 463 kts | 240° |
| 2026-05-05 00:54 | 47.35160 | -67.37424 | 37723 ft | 458 kts | 249° |
| 2026-05-05 00:55 | 47.32661 | -67.46069 | 37732 ft | 458 kts | 250° |
| 2026-05-05 00:55 | 47.30156 | -67.54718 | 37729 ft | 459 kts | 249° |
| 2026-05-05 00:56 | 47.27625 | -67.63358 | 37721 ft | 459 kts | 249° |
| 2026-05-05 00:56 | 47.25099 | -67.71910 | 37731 ft | 459 kts | 249° |
| 2026-05-05 00:57 | 47.22545 | -67.80514 | 37739 ft | 459 kts | 249° |
| 2026-05-05 00:57 | 47.19985 | -67.89111 | 37733 ft | 459 kts | 249° |
| 2026-05-05 00:58 | 47.17416 | -67.97709 | 37729 ft | 459 kts | 249° |
| 2026-05-05 00:58 | 47.14841 | -68.06299 | 37721 ft | 459 kts | 249° |
| 2026-05-05 00:59 | 47.12261 | -68.14875 | 37729 ft | 459 kts | 249° |
| 2026-05-05 00:59 | 47.09673 | -68.23449 | 37746 ft | 458 kts | 249° |
| 2026-05-05 01:00 | 47.07100 | -68.31944 | 37739 ft | 458 kts | 249° |
| 2026-05-05 01:00 | 47.04507 | -68.40476 | 37742 ft | 458 kts | 249° |
| 2026-05-05 01:01 | 47.01902 | -68.49018 | 37728 ft | 458 kts | 249° |
| 2026-05-05 01:01 | 46.99296 | -68.57531 | 37744 ft | 457 kts | 249° |
| 2026-05-05 01:02 | 46.96690 | -68.66020 | 37743 ft | 456 kts | 249° |
| 2026-05-05 01:02 | 46.94100 | -68.74426 | 37748 ft | 455 kts | 249° |
| 2026-05-05 01:03 | 46.91492 | -68.82863 | 37753 ft | 455 kts | 249° |
| 2026-05-05 01:03 | 46.88878 | -68.91291 | 37757 ft | 455 kts | 249° |
| 2026-05-05 01:04 | 46.86255 | -68.99722 | 37764 ft | 455 kts | 249° |
| 2026-05-05 01:04 | 46.82308 | -69.12354 | 37772 ft | 455 kts | 249° |
| 2026-05-05 01:05 | 46.79685 | -69.20715 | 37771 ft | 456 kts | 248° |
| 2026-05-05 01:05 | 46.77039 | -69.29116 | 37761 ft | 456 kts | 248° |
| 2026-05-05 01:06 | 46.74389 | -69.37507 | 37780 ft | 455 kts | 248° |
| 2026-05-05 01:06 | 46.71729 | -69.45899 | 37783 ft | 455 kts | 248° |
| 2026-05-05 01:07 | 46.69068 | -69.54268 | 37787 ft | 455 kts | 248° |
| 2026-05-05 01:07 | 46.66412 | -69.62594 | 37789 ft | 455 kts | 248° |
| 2026-05-05 01:08 | 46.63740 | -69.70943 | 37781 ft | 455 kts | 248° |
| 2026-05-05 01:08 | 46.61060 | -69.79294 | 37769 ft | 455 kts | 248° |
| 2026-05-05 01:09 | 46.58376 | -69.87624 | 37775 ft | 454 kts | 248° |
| 2026-05-05 01:09 | 46.55688 | -69.95942 | 37779 ft | 454 kts | 248° |
| 2026-05-05 01:10 | 46.52997 | -70.04242 | 37784 ft | 454 kts | 248° |
| 2026-05-05 01:10 | 46.50299 | -70.12540 | 37784 ft | 454 kts | 248° |
| 2026-05-05 01:11 | 46.47592 | -70.20833 | 37777 ft | 454 kts | 248° |
| 2026-05-05 01:11 | 46.44886 | -70.29100 | 37785 ft | 453 kts | 248° |
| 2026-05-05 01:12 | 46.42193 | -70.37302 | 37786 ft | 453 kts | 248° |
| 2026-05-05 01:12 | 46.39480 | -70.45535 | 37793 ft | 452 kts | 248° |
| 2026-05-05 01:13 | 46.36760 | -70.53769 | 37787 ft | 452 kts | 248° |
| 2026-05-05 01:13 | 46.34040 | -70.61972 | 37773 ft | 452 kts | 248° |
| 2026-05-05 01:14 | 46.31334 | -70.70109 | 37788 ft | 451 kts | 248° |
| 2026-05-05 01:14 | 46.28605 | -70.78288 | 37785 ft | 451 kts | 248° |
| 2026-05-05 01:15 | 46.25876 | -70.86444 | 37787 ft | 450 kts | 248° |
| 2026-05-05 01:15 | 46.23141 | -70.94590 | 37794 ft | 449 kts | 248° |
| 2026-05-05 01:16 | 46.20408 | -71.02706 | 37765 ft | 449 kts | 248° |
| 2026-05-05 01:16 | 46.17678 | -71.10788 | 37782 ft | 447 kts | 248° |
| 2026-05-05 01:17 | 46.14967 | -71.18791 | 37788 ft | 445 kts | 247° |
| 2026-05-05 01:17 | 46.12241 | -71.26814 | 37780 ft | 444 kts | 247° |
| 2026-05-05 01:18 | 46.09516 | -71.34807 | 37787 ft | 444 kts | 247° |
| 2026-05-05 01:18 | 46.06786 | -71.42791 | 37792 ft | 444 kts | 247° |
| 2026-05-05 01:19 | 46.04055 | -71.50755 | 37773 ft | 444 kts | 247° |
| 2026-05-05 01:19 | 46.01316 | -71.58719 | 37782 ft | 444 kts | 247° |
| 2026-05-05 01:20 | 45.98582 | -71.66645 | 37771 ft | 445 kts | 247° |
| 2026-05-05 01:20 | 45.95823 | -71.74617 | 37770 ft | 445 kts | 247° |
| 2026-05-05 01:21 | 45.93056 | -71.82589 | 37765 ft | 445 kts | 247° |
| 2026-05-05 01:21 | 45.90286 | -71.90545 | 37746 ft | 445 kts | 247° |
| 2026-05-05 01:22 | 45.87507 | -71.98505 | 37756 ft | 446 kts | 246° |
| 2026-05-05 01:22 | 45.84724 | -72.06451 | 37747 ft | 446 kts | 246° |
| 2026-05-05 01:23 | 45.81947 | -72.14358 | 37737 ft | 446 kts | 246° |
| 2026-05-05 01:23 | 45.79146 | -72.22308 | 37738 ft | 446 kts | 246° |
| 2026-05-05 01:24 | 45.76339 | -72.30252 | 37736 ft | 446 kts | 246° |
| 2026-05-05 01:24 | 45.73527 | -72.38189 | 37737 ft | 446 kts | 246° |
| 2026-05-05 01:25 | 45.70717 | -72.46098 | 37734 ft | 446 kts | 246° |
| 2026-05-05 01:25 | 45.67921 | -72.53943 | 37736 ft | 445 kts | 246° |
| 2026-05-05 01:26 | 45.65107 | -72.61819 | 37731 ft | 445 kts | 246° |
| 2026-05-05 01:26 | 45.62583 | -72.69857 | 37730 ft | 439 kts | 255° |
| 2026-05-05 01:27 | 45.61208 | -72.78316 | 37724 ft | 435 kts | 265° |
| 2026-05-05 01:27 | 45.60722 | -72.86863 | 37728 ft | 434 kts | 268° |
| 2026-05-05 01:28 | 45.60310 | -72.95489 | 37723 ft | 434 kts | 268° |
| 2026-05-05 01:28 | 45.59874 | -73.04096 | 37723 ft | 435 kts | 267° |
| 2026-05-05 01:29 | 45.59491 | -73.11258 | 37715 ft | 435 kts | 267° |
| 2026-05-05 01:29 | 45.59017 | -73.19879 | 37715 ft | 435 kts | 267° |
| 2026-05-05 01:30 | 45.58535 | -73.28501 | 37712 ft | 435 kts | 267° |
| 2026-05-05 01:30 | 45.58047 | -73.37120 | 37712 ft | 435 kts | 267° |
| 2026-05-05 01:31 | 45.57556 | -73.45680 | 37716 ft | 435 kts | 267° |
| 2026-05-05 01:31 | 45.57055 | -73.54312 | 37710 ft | 435 kts | 267° |
| 2026-05-05 01:32 | 45.56547 | -73.62943 | 37705 ft | 435 kts | 266° |
| 2026-05-05 01:32 | 45.56038 | -73.71496 | 37701 ft | 435 kts | 266° |
| 2026-05-05 01:33 | 45.55519 | -73.80091 | 37704 ft | 434 kts | 266° |
| 2026-05-05 01:33 | 45.54994 | -73.88676 | 37702 ft | 434 kts | 266° |
| 2026-05-05 01:34 | 45.54464 | -73.97256 | 37700 ft | 434 kts | 266° |
| 2026-05-05 01:34 | 45.53926 | -74.05843 | 37707 ft | 434 kts | 266° |
| 2026-05-05 01:35 | 45.53382 | -74.14426 | 37691 ft | 434 kts | 266° |
| 2026-05-05 01:35 | 45.52832 | -74.23007 | 37702 ft | 434 kts | 266° |
| 2026-05-05 01:36 | 45.52279 | -74.31531 | 37692 ft | 434 kts | 266° |
| 2026-05-05 01:36 | 45.51718 | -74.40096 | 37688 ft | 434 kts | 266° |
| 2026-05-05 01:37 | 45.51034 | -74.48630 | 37682 ft | 434 kts | 261° |
| 2026-05-05 01:37 | 45.49842 | -74.57068 | 37675 ft | 433 kts | 260° |
| 2026-05-05 01:38 | 45.48637 | -74.65489 | 37676 ft | 432 kts | 261° |
| 2026-05-05 01:38 | 45.47457 | -74.73827 | 37684 ft | 431 kts | 261° |
| 2026-05-05 01:39 | 45.46272 | -74.82198 | 37666 ft | 430 kts | 261° |
| 2026-05-05 01:39 | 45.45085 | -74.90544 | 37665 ft | 429 kts | 260° |
| 2026-05-05 01:40 | 45.43895 | -74.98867 | 37661 ft | 428 kts | 260° |
| 2026-05-05 01:40 | 45.42697 | -75.07188 | 37664 ft | 428 kts | 260° |
| 2026-05-05 01:41 | 45.41500 | -75.15437 | 37665 ft | 427 kts | 260° |
| 2026-05-05 01:41 | 45.40294 | -75.23717 | 37640 ft | 426 kts | 260° |
| 2026-05-05 01:42 | 45.39086 | -75.31970 | 37650 ft | 425 kts | 260° |
| 2026-05-05 01:42 | 45.37876 | -75.40194 | 37654 ft | 424 kts | 260° |
| 2026-05-05 01:43 | 45.36670 | -75.48349 | 37649 ft | 424 kts | 260° |
| 2026-05-05 01:43 | 45.35452 | -75.56546 | 37659 ft | 423 kts | 260° |
| 2026-05-05 01:44 | 45.34229 | -75.64727 | 37653 ft | 422 kts | 259° |
| 2026-05-05 01:44 | 45.33003 | -75.72893 | 37656 ft | 422 kts | 259° |
| 2026-05-05 01:45 | 45.31769 | -75.81063 | 37653 ft | 422 kts | 259° |
| 2026-05-05 01:45 | 45.30532 | -75.89214 | 37659 ft | 422 kts | 259° |
| 2026-05-05 01:46 | 45.29290 | -75.97361 | 37648 ft | 422 kts | 259° |
| 2026-05-05 01:46 | 45.28050 | -76.05451 | 37644 ft | 421 kts | 259° |
| 2026-05-05 01:47 | 45.26798 | -76.13580 | 37649 ft | 420 kts | 259° |
| 2026-05-05 01:47 | 45.25544 | -76.21680 | 37641 ft | 420 kts | 259° |
| 2026-05-05 01:48 | 45.23737 | -76.29575 | 37652 ft | 422 kts | 250° |
| 2026-05-05 01:48 | 45.21380 | -76.37137 | 37629 ft | 418 kts | 249° |
| 2026-05-05 01:49 | 45.20204 | -76.40870 | 37503 ft | 410 kts | 249° |
| 2026-05-05 01:49 | 45.19065 | -76.44532 | 37345 ft | 403 kts | 249° |
| 2026-05-05 01:49 | 45.17954 | -76.48151 | 37049 ft | 399 kts | 249° |
| 2026-05-05 01:49 | 45.16859 | -76.51755 | 36637 ft | 397 kts | 250° |
| 2026-05-05 01:50 | 45.15776 | -76.55341 | 36309 ft | 394 kts | 250° |
| 2026-05-05 01:50 | 45.14703 | -76.58896 | 36004 ft | 390 kts | 250° |
| 2026-05-05 01:50 | 45.13641 | -76.62415 | 35702 ft | 387 kts | 250° |
| 2026-05-05 01:50 | 45.12584 | -76.65912 | 35381 ft | 385 kts | 250° |
| 2026-05-05 01:51 | 45.11533 | -76.69386 | 35083 ft | 382 kts | 251° |
| 2026-05-05 01:51 | 45.10487 | -76.72840 | 34789 ft | 379 kts | 251° |
| 2026-05-05 01:51 | 45.09461 | -76.76219 | 34483 ft | 377 kts | 251° |
| 2026-05-05 01:51 | 45.08430 | -76.79615 | 34192 ft | 374 kts | 251° |
| 2026-05-05 01:52 | 45.07404 | -76.82983 | 33917 ft | 371 kts | 251° |
| 2026-05-05 01:52 | 45.06386 | -76.86326 | 33632 ft | 369 kts | 251° |
| 2026-05-05 01:52 | 45.05372 | -76.89649 | 33304 ft | 366 kts | 251° |
| 2026-05-05 01:52 | 45.04367 | -76.92941 | 32974 ft | 364 kts | 251° |
| 2026-05-05 01:53 | 45.03364 | -76.96221 | 32651 ft | 361 kts | 251° |
| 2026-05-05 01:53 | 45.02368 | -76.99475 | 32288 ft | 360 kts | 251° |
| 2026-05-05 01:53 | 45.01372 | -77.02722 | 31954 ft | 358 kts | 251° |
| 2026-05-05 01:53 | 45.00402 | -77.05879 | 31965 ft | 352 kts | 251° |
| 2026-05-05 01:54 | 44.98438 | -77.12269 | 31969 ft | 358 kts | 250° |
| 2026-05-05 01:54 | 44.96438 | -77.18762 | 31934 ft | 359 kts | 250° |
| 2026-05-05 01:55 | 44.95447 | -77.21965 | 31701 ft | 355 kts | 250° |
| 2026-05-05 01:55 | 44.94459 | -77.25154 | 31374 ft | 353 kts | 250° |
| 2026-05-05 01:55 | 44.93475 | -77.28330 | 31011 ft | 353 kts | 250° |
| 2026-05-05 01:55 | 44.92493 | -77.31496 | 30706 ft | 351 kts | 250° |
| 2026-05-05 01:56 | 44.91516 | -77.34642 | 30441 ft | 349 kts | 250° |
| 2026-05-05 01:56 | 44.90545 | -77.37765 | 30181 ft | 346 kts | 250° |
| 2026-05-05 01:56 | 44.89579 | -77.40867 | 29891 ft | 344 kts | 250° |
| 2026-05-05 01:56 | 44.88619 | -77.43948 | 29579 ft | 343 kts | 250° |
| 2026-05-05 01:57 | 44.87661 | -77.47020 | 29172 ft | 342 kts | 249° |
| 2026-05-05 01:57 | 44.86702 | -77.50090 | 28822 ft | 341 kts | 249° |
| 2026-05-05 01:57 | 44.85757 | -77.53111 | 28508 ft | 339 kts | 249° |
| 2026-05-05 01:57 | 44.84806 | -77.56147 | 28205 ft | 337 kts | 249° |
| 2026-05-05 01:58 | 44.83860 | -77.59166 | 27897 ft | 336 kts | 249° |
| 2026-05-05 01:58 | 44.82918 | -77.62165 | 27585 ft | 334 kts | 249° |
| 2026-05-05 01:58 | 44.81977 | -77.65162 | 27291 ft | 333 kts | 249° |
| 2026-05-05 01:58 | 44.81039 | -77.68145 | 27010 ft | 332 kts | 249° |
| 2026-05-05 01:59 | 44.80106 | -77.71108 | 26702 ft | 330 kts | 249° |
| 2026-05-05 01:59 | 44.79176 | -77.74062 | 26422 ft | 329 kts | 249° |
| 2026-05-05 01:59 | 44.78250 | -77.76999 | 26151 ft | 328 kts | 249° |
| 2026-05-05 01:59 | 44.77338 | -77.79885 | 25928 ft | 326 kts | 249° |
| 2026-05-05 02:00 | 44.76417 | -77.82793 | 25679 ft | 323 kts | 249° |
| 2026-05-05 02:00 | 44.75449 | -77.85641 | 25417 ft | 323 kts | 245° |
| 2026-05-05 02:00 | 44.74337 | -77.88397 | 25141 ft | 323 kts | 243° |
| 2026-05-05 02:00 | 44.73187 | -77.91110 | 24883 ft | 322 kts | 243° |
| 2026-05-05 02:01 | 44.72037 | -77.93813 | 24620 ft | 321 kts | 243° |
| 2026-05-05 02:01 | 44.70898 | -77.96510 | 24348 ft | 320 kts | 243° |
| 2026-05-05 02:01 | 44.69768 | -77.99205 | 24109 ft | 319 kts | 243° |
| 2026-05-05 02:01 | 44.68647 | -78.01891 | 23881 ft | 318 kts | 243° |
| 2026-05-05 02:02 | 44.67534 | -78.04569 | 23631 ft | 317 kts | 243° |
| 2026-05-05 02:02 | 44.66424 | -78.07240 | 23392 ft | 316 kts | 243° |
| 2026-05-05 02:02 | 44.65318 | -78.09905 | 23137 ft | 315 kts | 243° |
| 2026-05-05 02:02 | 44.64217 | -78.12554 | 22879 ft | 313 kts | 243° |
| 2026-05-05 02:03 | 44.63121 | -78.15192 | 22610 ft | 312 kts | 243° |
| 2026-05-05 02:03 | 44.62030 | -78.17815 | 22359 ft | 310 kts | 243° |
| 2026-05-05 02:03 | 44.60943 | -78.20426 | 22115 ft | 309 kts | 243° |
| 2026-05-05 02:03 | 44.59874 | -78.22994 | 21862 ft | 308 kts | 243° |
| 2026-05-05 02:04 | 44.58794 | -78.25582 | 21614 ft | 307 kts | 243° |
| 2026-05-05 02:04 | 44.57715 | -78.28163 | 21348 ft | 305 kts | 243° |
| 2026-05-05 02:04 | 44.56645 | -78.30723 | 21112 ft | 304 kts | 243° |
| 2026-05-05 02:04 | 44.55573 | -78.33278 | 20879 ft | 302 kts | 243° |
| 2026-05-05 02:05 | 44.54504 | -78.35826 | 20635 ft | 302 kts | 242° |
| 2026-05-05 02:05 | 44.53456 | -78.38321 | 20398 ft | 300 kts | 242° |
| 2026-05-05 02:05 | 44.52396 | -78.40843 | 20171 ft | 300 kts | 242° |
| 2026-05-05 02:05 | 44.51338 | -78.43358 | 19939 ft | 299 kts | 242° |
| 2026-05-05 02:06 | 44.50286 | -78.45857 | 19715 ft | 298 kts | 242° |
| 2026-05-05 02:06 | 44.49230 | -78.48365 | 19499 ft | 296 kts | 242° |
| 2026-05-05 02:06 | 44.48193 | -78.50824 | 19292 ft | 296 kts | 242° |
| 2026-05-05 02:06 | 44.47143 | -78.53313 | 19053 ft | 295 kts | 242° |
| 2026-05-05 02:07 | 44.46100 | -78.55785 | 18851 ft | 294 kts | 242° |
| 2026-05-05 02:07 | 44.45061 | -78.58244 | 18633 ft | 293 kts | 242° |
| 2026-05-05 02:07 | 44.44025 | -78.60692 | 18305 ft | 291 kts | 242° |
| 2026-05-05 02:07 | 44.42999 | -78.63117 | 17960 ft | 289 kts | 242° |
| 2026-05-05 02:08 | 44.41992 | -78.65492 | 17555 ft | 287 kts | 241° |
| 2026-05-05 02:08 | 44.40979 | -78.67881 | 17183 ft | 284 kts | 241° |
| 2026-05-05 02:08 | 44.39961 | -78.70277 | 16824 ft | 281 kts | 242° |
| 2026-05-05 02:08 | 44.38981 | -78.72585 | 16482 ft | 279 kts | 242° |
| 2026-05-05 02:09 | 44.37993 | -78.74910 | 16127 ft | 276 kts | 242° |
| 2026-05-05 02:09 | 44.37013 | -78.77214 | 15783 ft | 274 kts | 242° |
| 2026-05-05 02:09 | 44.36043 | -78.79492 | 15443 ft | 272 kts | 242° |
| 2026-05-05 02:09 | 44.35080 | -78.81752 | 15111 ft | 270 kts | 242° |
| 2026-05-05 02:10 | 44.34120 | -78.84004 | 14776 ft | 268 kts | 242° |
| 2026-05-05 02:10 | 44.33168 | -78.86234 | 14443 ft | 266 kts | 242° |
| 2026-05-05 02:10 | 44.32231 | -78.88429 | 14117 ft | 265 kts | 242° |
| 2026-05-05 02:10 | 44.31288 | -78.90637 | 13789 ft | 263 kts | 242° |
| 2026-05-05 02:11 | 44.30351 | -78.92828 | 13473 ft | 262 kts | 242° |
| 2026-05-05 02:11 | 44.29418 | -78.95010 | 13116 ft | 261 kts | 242° |
| 2026-05-05 02:11 | 44.28489 | -78.97180 | 12765 ft | 259 kts | 242° |
| 2026-05-05 02:11 | 44.27577 | -78.99310 | 12451 ft | 257 kts | 241° |
| 2026-05-05 02:12 | 44.26659 | -79.01447 | 12128 ft | 256 kts | 241° |
| 2026-05-05 02:12 | 44.24825 | -79.05660 | 11499 ft | 253 kts | 237° |
| 2026-05-05 02:12 | 44.23689 | -79.07568 | 11222 ft | 258 kts | 230° |
| 2026-05-05 02:13 | 44.22454 | -79.09402 | 10902 ft | 267 kts | 229° |
| 2026-05-05 02:13 | 44.21165 | -79.11291 | 10567 ft | 270 kts | 229° |
| 2026-05-05 02:13 | 44.19874 | -79.13193 | 10264 ft | 267 kts | 229° |
| 2026-05-05 02:13 | 44.18626 | -79.15044 | 10137 ft | 258 kts | 230° |
| 2026-05-05 02:14 | 44.17422 | -79.16839 | 10003 ft | 249 kts | 230° |
| 2026-05-05 02:14 | 44.16247 | -79.18601 | 9714 ft | 247 kts | 230° |
| 2026-05-05 02:14 | 44.15084 | -79.20350 | 9433 ft | 245 kts | 230° |
| 2026-05-05 02:14 | 44.13926 | -79.22093 | 9107 ft | 243 kts | 230° |
| 2026-05-05 02:15 | 44.12783 | -79.23815 | 8817 ft | 241 kts | 230° |
| 2026-05-05 02:15 | 44.11665 | -79.25498 | 8529 ft | 238 kts | 229° |
| 2026-05-05 02:15 | 44.10547 | -79.27179 | 8308 ft | 233 kts | 230° |
| 2026-05-05 02:15 | 44.09470 | -79.28796 | 8195 ft | 223 kts | 229° |
| 2026-05-05 02:16 | 44.08435 | -79.30349 | 8093 ft | 214 kts | 230° |
| 2026-05-05 02:16 | 44.07385 | -79.31721 | 7970 ft | 204 kts | 214° |
| 2026-05-05 02:16 | 44.06033 | -79.32401 | 7823 ft | 216 kts | 196° |
| 2026-05-05 02:16 | 44.04491 | -79.32581 | 7613 ft | 225 kts | 189° |
| 2026-05-05 02:17 | 44.02913 | -79.32629 | 7373 ft | 228 kts | 188° |
| 2026-05-05 02:17 | 44.01315 | -79.32667 | 7148 ft | 230 kts | 188° |
| 2026-05-05 02:17 | 43.99712 | -79.32709 | 6900 ft | 230 kts | 188° |
| 2026-05-05 02:17 | 43.98122 | -79.32758 | 6652 ft | 227 kts | 188° |
| 2026-05-05 02:18 | 43.96552 | -79.32814 | 6410 ft | 224 kts | 188° |
| 2026-05-05 02:18 | 43.95007 | -79.32871 | 6183 ft | 220 kts | 188° |
| 2026-05-05 02:18 | 43.93500 | -79.32927 | 6013 ft | 213 kts | 188° |
| 2026-05-05 02:18 | 43.92021 | -79.32986 | 5736 ft | 214 kts | 188° |
| 2026-05-05 02:19 | 43.90574 | -79.33281 | 5484 ft | 207 kts | 208° |
| 2026-05-05 02:19 | 43.89798 | -79.34016 | 5364 ft | 204 kts | 224° |
| 2026-05-05 02:19 | 43.88760 | -79.35388 | 5170 ft | 207 kts | 225° |
| 2026-05-05 02:19 | 43.87416 | -79.37242 | 4853 ft | 204 kts | 227° |
| 2026-05-05 02:20 | 43.86442 | -79.38644 | 4645 ft | 201 kts | 227° |
| 2026-05-05 02:20 | 43.85485 | -79.40037 | 4442 ft | 198 kts | 227° |
| 2026-05-05 02:20 | 43.84861 | -79.40949 | 4298 ft | 196 kts | 228° |
| 2026-05-05 02:20 | 43.83929 | -79.42314 | 4092 ft | 194 kts | 227° |
| 2026-05-05 02:21 | 43.83008 | -79.43664 | 3905 ft | 192 kts | 227° |
| 2026-05-05 02:21 | 43.82091 | -79.45005 | 3705 ft | 190 kts | 227° |
| 2026-05-05 02:21 | 43.81182 | -79.46334 | 3517 ft | 188 kts | 227° |
| 2026-05-05 02:21 | 43.80304 | -79.47618 | 3304 ft | 179 kts | 227° |
| 2026-05-05 02:22 | 43.79475 | -79.48828 | 3138 ft | 166 kts | 227° |
| 2026-05-05 02:22 | 43.78730 | -79.49916 | 3050 ft | 144 kts | 227° |
| 2026-05-05 02:22 | 43.78073 | -79.50877 | 3011 ft | 137 kts | 227° |
| 2026-05-05 02:22 | 43.77413 | -79.51842 | 2844 ft | 138 kts | 227° |
| 2026-05-05 02:23 | 43.76750 | -79.52807 | 2664 ft | 137 kts | 226° |
| 2026-05-05 02:23 | 43.76098 | -79.53762 | 2489 ft | 135 kts | 226° |
| 2026-05-05 02:23 | 43.75493 | -79.54648 | 2322 ft | 118 kts | 226° |
| 2026-05-05 02:23 | 43.74961 | -79.55422 | 2155 ft | 109 kts | 226° |
| 2026-05-05 02:24 | 43.74433 | -79.56191 | 2026 ft | 111 kts | 226° |
| 2026-05-05 02:24 | 43.73903 | -79.56965 | 1855 ft | 109 kts | 226° |
| 2026-05-05 02:24 | 43.73382 | -79.57723 | 1730 ft | 108 kts | 227° |
| 2026-05-05 02:24 | 43.72871 | -79.58480 | 1585 ft | 106 kts | 224° |
| 2026-05-05 02:25 | 43.72353 | -79.59221 | 1447 ft | 106 kts | 225° |
| 2026-05-05 02:25 | 43.71818 | -79.60004 | 1297 ft | 117 kts | 224° |
| 2026-05-05 02:25 | 43.71247 | -79.60839 | 1109 ft | 123 kts | 224° |
| 2026-05-05 02:25 | 43.70660 | -79.61693 | 948 ft | 125 kts | 225° |
| 2026-05-05 02:26 | 43.70050 | -79.62583 | 818 ft | 129 kts | 225° |
| 2026-05-05 02:26 | 43.69397 | -79.63536 | 1026 ft | 139 kts | 224° |
| 2026-05-05 02:26 | 43.68776 | -79.64367 | 1992 ft | 113 kts | 222° |
| 2026-05-05 02:26 | 43.68175 | -79.65064 | 2810 ft | 120 kts | 223° |
| 2026-05-05 02:27 | 43.67375 | -79.65979 | 3516 ft | 182 kts | 224° |
| 2026-05-05 02:27 | 43.66470 | -79.67342 | 4025 ft | 183 kts | 233° |
| 2026-05-05 02:27 | 43.66085 | -79.69042 | 3508 ft | 204 kts | 267° |
| 2026-05-05 02:27 | 43.66283 | -79.71055 | 3359 ft | 217 kts | 270° |
| 2026-05-05 02:28 | 43.66662 | -79.73113 | 3144 ft | 231 kts | 289° |
| 2026-05-05 02:28 | 43.67787 | -79.74855 | 3055 ft | 255 kts | 312° |
| 2026-05-05 02:28 | 43.69381 | -79.76078 | 3015 ft | 271 kts | 331° |
| 2026-05-05 02:28 | 43.71293 | -79.76486 | 2984 ft | 290 kts | 356° |
| 2026-05-05 02:29 | 43.73275 | -79.75748 | 2985 ft | 304 kts | 25° |
| 2026-05-05 02:29 | 43.74857 | -79.73834 | 2999 ft | 311 kts | 55° |
| 2026-05-05 02:29 | 43.75806 | -79.71155 | 3009 ft | 310 kts | 76° |
| 2026-05-05 02:29 | 43.76367 | -79.68285 | 3035 ft | 310 kts | 81° |
| 2026-05-05 02:30 | 43.76878 | -79.65394 | 3007 ft | 308 kts | 80° |
| 2026-05-05 02:30 | 43.77423 | -79.62545 | 2998 ft | 306 kts | 79° |
| 2026-05-05 02:30 | 43.77993 | -79.59722 | 3006 ft | 303 kts | 78° |
| 2026-05-05 02:30 | 43.78414 | -79.56933 | 2978 ft | 283 kts | 98° |
| 2026-05-05 02:31 | 43.77933 | -79.54513 | 2999 ft | 245 kts | 134° |
| 2026-05-05 02:31 | 43.76800 | -79.53079 | 2988 ft | 203 kts | 169° |
| 2026-05-05 02:31 | 43.75574 | -79.52919 | 2989 ft | 160 kts | 207° |
| 2026-05-05 02:31 | 43.74838 | -79.53850 | 3027 ft | 143 kts | 245° |
| 2026-05-05 02:32 | 43.74556 | -79.55145 | 2972 ft | 139 kts | 244° |
| 2026-05-05 02:32 | 43.74193 | -79.56372 | 2576 ft | 139 kts | 242° |
| 2026-05-05 02:32 | 43.73727 | -79.57437 | 2257 ft | 125 kts | 236° |
| 2026-05-05 02:32 | 43.73084 | -79.58288 | 1606 ft | 127 kts | 227° |
| 2026-05-05 02:33 | 43.72434 | -79.59113 | 1451 ft | 131 kts | 226° |
| 2026-05-05 02:33 | 43.71762 | -79.60074 | 1288 ft | 146 kts | 228° |
| 2026-05-05 02:33 | 43.71056 | -79.61128 | 1076 ft | 153 kts | 227° |
| 2026-05-05 02:33 | 43.70293 | -79.62201 | 843 ft | 162 kts | 227° |
| 2026-05-05 02:34 | 43.69520 | -79.63338 | 657 ft | 159 kts | 227° |
| 2026-05-05 02:34 | 43.68774 | -79.64430 | 574 ft | 148 kts | 226° |
| 2026-05-05 02:34 | 43.68185 | -79.65284 | 580 ft | 96 kts | 226° |
| 2026-05-05 02:34 | 43.67854 | -79.65762 | 583 ft | 43 kts | 226° |
| 2026-05-05 02:35 | 43.67731 | -79.65948 | 586 ft | 22 kts | 225° |
| 2026-05-05 02:35 | 43.67622 | -79.66102 | 581 ft | 22 kts | 226° |
| 2026-05-05 02:35 | 43.67516 | -79.66255 | 580 ft | 20 kts | 225° |
| 2026-05-05 02:35 | 43.67394 | -79.66246 | 583 ft | 20 kts | 149° |
| 2026-05-05 02:36 | 43.67355 | -79.66096 | 583 ft | 20 kts | 54° |
| 2026-05-05 02:36 | 43.67446 | -79.65957 | 585 ft | 20 kts | 46° |
| 2026-05-05 02:36 | 43.67541 | -79.65822 | 588 ft | 20 kts | 46° |
| 2026-05-05 02:36 | 43.67634 | -79.65685 | 586 ft | 20 kts | 46° |
| 2026-05-05 02:37 | 43.67734 | -79.65546 | 586 ft | 21 kts | 48° |
| 2026-05-05 02:37 | 43.67833 | -79.65397 | 579 ft | 22 kts | 45° |
| 2026-05-05 02:37 | 43.67941 | -79.65240 | 583 ft | 22 kts | 47° |
| 2026-05-05 02:37 | 43.68048 | -79.65083 | 584 ft | 22 kts | 46° |
| 2026-05-05 02:38 | 43.68155 | -79.64929 | 587 ft | 22 kts | 46° |
| 2026-05-05 02:38 | 43.68263 | -79.64773 | 587 ft | 22 kts | 46° |
| 2026-05-05 02:38 | 43.68375 | -79.64611 | 581 ft | 25 kts | 46° |
| 2026-05-05 02:38 | 43.68494 | -79.64434 | 580 ft | 25 kts | 47° |
| 2026-05-05 02:39 | 43.68616 | -79.64257 | 582 ft | 26 kts | 46° |
| 2026-05-05 02:39 | 43.68739 | -79.64080 | 582 ft | 26 kts | 46° |
| 2026-05-05 02:39 | 43.68861 | -79.63901 | 583 ft | 26 kts | 46° |
| 2026-05-05 02:39 | 43.68982 | -79.63728 | 582 ft | 23 kts | 46° |
| 2026-05-05 02:40 | 43.69071 | -79.63592 | 579 ft | 17 kts | 63° |
| 2026-05-05 02:40 | 43.69023 | -79.63459 | 576 ft | 17 kts | 134° |
| 2026-05-05 02:40 | 43.68939 | -79.63349 | 577 ft | 17 kts | 137° |
| 2026-05-05 02:40 | 43.68850 | -79.63235 | 576 ft | 18 kts | 137° |
| 2026-05-05 02:41 | 43.68758 | -79.63114 | 573 ft | 18 kts | 137° |
| 2026-05-05 02:41 | 43.68664 | -79.62991 | 570 ft | 19 kts | 136° |
| 2026-05-05 02:41 | 43.68567 | -79.62865 | 572 ft | 19 kts | 136° |
| 2026-05-05 02:41 | 43.68470 | -79.62740 | 572 ft | 19 kts | 136° |
| 2026-05-05 02:42 | 43.68374 | -79.62614 | 579 ft | 19 kts | 136° |
| 2026-05-05 02:42 | 43.68286 | -79.62497 | 577 ft | 13 kts | 135° |
| 2026-05-05 02:42 | 43.68285 | -79.62381 | 573 ft | 13 kts | 74° |
| 2026-05-05 02:42 | 43.68321 | -79.62276 | 574 ft | 9 kts | 55° |
| 2026-05-05 02:43 | 43.68324 | -79.62190 | 573 ft | 8 kts | 108° |
| 2026-05-05 02:43 | 43.68312 | -79.62142 | 575 ft | 5 kts | 111° |
| 2026-05-05 02:43 | 43.68306 | -79.62125 | 575 ft | 0 kts | 114° |